<?xml version="1.0" encoding="UTF-8"?>
<gpx  version="1.1"  creator="Verlag Esterbauer" xmlns:xsi="http://www.w3.org/2001/XMLSchema-instance" xmlns="http://www.topografix.com/GPX/1/1"  xsi:schemaLocation="http://www.topografix.com/GPX/1/1 http://www.topografix.com/GPX/1/1/gpx.xsd">
    <trk>
        <name>mosel#01_1</name>
        <desc>by Verlag Esterbauer</desc>
        <trkseg>
            <trkpt lon="6.17703139" lat="49.11014223">
                <ele>181</ele>
                <time>2014-02-25T12:04:06.355+01:00</time>
            </trkpt>
            <trkpt lon="6.17793834" lat="49.11053695">
                <ele>181</ele>
                <time>2014-02-25T12:04:30.355+01:00</time>
            </trkpt>
            <trkpt lon="6.17890917" lat="49.11100695">
                <ele>177</ele>
                <time>2014-02-25T12:04:56.355+01:00</time>
            </trkpt>
            <trkpt lon="6.17884028" lat="49.11115500">
                <ele>177</ele>
                <time>2014-02-25T12:04:59.355+01:00</time>
            </trkpt>
            <trkpt lon="6.17852528" lat="49.11192945">
                <ele>178</ele>
                <time>2014-02-25T12:05:15.355+01:00</time>
            </trkpt>
            <trkpt lon="6.17850417" lat="49.11264056">
                <ele>175</ele>
                <time>2014-02-25T12:05:27.355+01:00</time>
            </trkpt>
            <trkpt lon="6.17853389" lat="49.11258445">
                <ele>175</ele>
                <time>2014-02-25T12:05:28.355+01:00</time>
            </trkpt>
            <trkpt lon="6.17832084" lat="49.11390223">
                <ele>173</ele>
                <time>2014-02-25T12:05:51.355+01:00</time>
            </trkpt>
            <trkpt lon="6.17819750" lat="49.11383612">
                <ele>173</ele>
                <time>2014-02-25T12:05:54.355+01:00</time>
            </trkpt>
            <trkpt lon="6.17801945" lat="49.11408834">
                <ele>174</ele>
                <time>2014-02-25T12:06:00.355+01:00</time>
            </trkpt>
            <trkpt lon="6.17593806" lat="49.11482556">
                <ele>174</ele>
                <time>2014-02-25T12:06:56.355+01:00</time>
            </trkpt>
            <trkpt lon="6.17618945" lat="49.11489973">
                <ele>175</ele>
                <time>2014-02-25T12:07:03.355+01:00</time>
            </trkpt>
            <trkpt lon="6.17712167" lat="49.11563278">
                <ele>177</ele>
                <time>2014-02-25T12:07:31.355+01:00</time>
            </trkpt>
            <trkpt lon="6.17817806" lat="49.11686056">
                <ele>181</ele>
                <time>2014-02-25T12:08:07.355+01:00</time>
            </trkpt>
            <trkpt lon="6.17821584" lat="49.11686251">
                <ele>181</ele>
                <time>2014-02-25T12:08:08.355+01:00</time>
            </trkpt>
            <trkpt lon="6.17707862" lat="49.11737751">
                <ele>186</ele>
                <time>2014-02-25T12:08:40.355+01:00</time>
            </trkpt>
            <trkpt lon="6.17606112" lat="49.11786723">
                <ele>183</ele>
                <time>2014-02-25T12:09:08.355+01:00</time>
            </trkpt>
            <trkpt lon="6.17590612" lat="49.11799695">
                <ele>183</ele>
                <time>2014-02-25T12:09:12.355+01:00</time>
            </trkpt>
            <trkpt lon="6.17500806" lat="49.11852750">
                <ele>179</ele>
                <time>2014-02-25T12:09:37.355+01:00</time>
            </trkpt>
            <trkpt lon="6.17407056" lat="49.11894056">
                <ele>179</ele>
                <time>2014-02-25T12:10:02.355+01:00</time>
            </trkpt>
            <trkpt lon="6.17261639" lat="49.11938139">
                <ele>177</ele>
                <time>2014-02-25T12:10:41.355+01:00</time>
            </trkpt>
            <trkpt lon="6.17308584" lat="49.12003973">
                <ele>170</ele>
                <time>2014-02-25T12:10:57.355+01:00</time>
            </trkpt>
            <trkpt lon="6.17396028" lat="49.12043306">
                <ele>172</ele>
                <time>2014-02-25T12:11:21.355+01:00</time>
            </trkpt>
            <trkpt lon="6.17398973" lat="49.12037528">
                <ele>173</ele>
                <time>2014-02-25T12:11:22.355+01:00</time>
            </trkpt>
            <trkpt lon="6.17437334" lat="49.12052556">
                <ele>174</ele>
                <time>2014-02-25T12:11:32.355+01:00</time>
            </trkpt>
            <trkpt lon="6.17478167" lat="49.12066084">
                <ele>175</ele>
                <time>2014-02-25T12:11:43.355+01:00</time>
            </trkpt>
            <trkpt lon="6.17519028" lat="49.12085362">
                <ele>171</ele>
                <time>2014-02-25T12:11:54.355+01:00</time>
            </trkpt>
            <trkpt lon="6.17504973" lat="49.12112612">
                <ele>167</ele>
                <time>2014-02-25T12:12:00.355+01:00</time>
            </trkpt>
            <trkpt lon="6.17456889" lat="49.12183862">
                <ele>170</ele>
                <time>2014-02-25T12:12:18.355+01:00</time>
            </trkpt>
            <trkpt lon="6.17444806" lat="49.12176723">
                <ele>170</ele>
                <time>2014-02-25T12:12:21.355+01:00</time>
            </trkpt>
            <trkpt lon="6.17367084" lat="49.12140334">
                <ele>169</ele>
                <time>2014-02-25T12:12:42.355+01:00</time>
            </trkpt>
            <trkpt lon="6.17250973" lat="49.12089250">
                <ele>169</ele>
                <time>2014-02-25T12:13:14.355+01:00</time>
            </trkpt>
            <trkpt lon="6.17183778" lat="49.12101945">
                <ele>170</ele>
                <time>2014-02-25T12:13:32.355+01:00</time>
            </trkpt>
            <trkpt lon="6.17129195" lat="49.12110084">
                <ele>169</ele>
                <time>2014-02-25T12:13:46.355+01:00</time>
            </trkpt>
            <trkpt lon="6.16975862" lat="49.12205750">
                <ele>169</ele>
                <time>2014-02-25T12:14:29.355+01:00</time>
            </trkpt>
            <trkpt lon="6.16978223" lat="49.12203278">
                <ele>169</ele>
                <time>2014-02-25T12:14:29.355+01:00</time>
            </trkpt>
            <trkpt lon="6.16877417" lat="49.12118917">
                <ele>171</ele>
                <time>2014-02-25T12:14:59.355+01:00</time>
            </trkpt>
            <trkpt lon="6.16845473" lat="49.12119778">
                <ele>171</ele>
                <time>2014-02-25T12:15:07.355+01:00</time>
            </trkpt>
            <trkpt lon="6.16719584" lat="49.12208945">
                <ele>168</ele>
                <time>2014-02-25T12:15:43.355+01:00</time>
            </trkpt>
            <trkpt lon="6.16526556" lat="49.12367556">
                <ele>162</ele>
                <time>2014-02-25T12:16:41.355+01:00</time>
            </trkpt>
            <trkpt lon="6.16498500" lat="49.12416584">
                <ele>166</ele>
                <time>2014-02-25T12:16:53.355+01:00</time>
            </trkpt>
            <trkpt lon="6.16423445" lat="49.12530750">
                <ele>163</ele>
                <time>2014-02-25T12:17:21.355+01:00</time>
            </trkpt>
            <trkpt lon="6.16449223" lat="49.12521917">
                <ele>166</ele>
                <time>2014-02-25T12:17:28.355+01:00</time>
            </trkpt>
            <trkpt lon="6.16467056" lat="49.12532750">
                <ele>167</ele>
                <time>2014-02-25T12:17:33.355+01:00</time>
            </trkpt>
            <trkpt lon="6.16460834" lat="49.12533000">
                <ele>167</ele>
                <time>2014-02-25T12:17:34.355+01:00</time>
            </trkpt>
            <trkpt lon="6.16413778" lat="49.12586167">
                <ele>164</ele>
                <time>2014-02-25T12:17:49.355+01:00</time>
            </trkpt>
            <trkpt lon="6.16408306" lat="49.12596862">
                <ele>165</ele>
                <time>2014-02-25T12:17:51.355+01:00</time>
            </trkpt>
            <trkpt lon="6.16567251" lat="49.12717584">
                <ele>159</ele>
                <time>2014-02-25T12:18:38.355+01:00</time>
            </trkpt>
            <trkpt lon="6.16638973" lat="49.12767389">
                <ele>157</ele>
                <time>2014-02-25T12:18:58.355+01:00</time>
            </trkpt>
            <trkpt lon="6.16668862" lat="49.12805528">
                <ele>156</ele>
                <time>2014-02-25T12:19:08.355+01:00</time>
            </trkpt>
            <trkpt lon="6.16927528" lat="49.12981028">
                <ele>159</ele>
                <time>2014-02-25T12:20:23.355+01:00</time>
            </trkpt>
            <trkpt lon="6.16928167" lat="49.12979973">
                <ele>159</ele>
                <time>2014-02-25T12:20:23.355+01:00</time>
            </trkpt>
            <trkpt lon="6.17001056" lat="49.13030278">
                <ele>158</ele>
                <time>2014-02-25T12:20:44.355+01:00</time>
            </trkpt>
            <trkpt lon="6.16989973" lat="49.13034750">
                <ele>157</ele>
                <time>2014-02-25T12:20:47.355+01:00</time>
            </trkpt>
            <trkpt lon="6.17018251" lat="49.13044917">
                <ele>158</ele>
                <time>2014-02-25T12:20:54.355+01:00</time>
            </trkpt>
            <trkpt lon="6.17045445" lat="49.13027973">
                <ele>160</ele>
                <time>2014-02-25T12:21:02.355+01:00</time>
            </trkpt>
            <trkpt lon="6.17029834" lat="49.13012695">
                <ele>162</ele>
                <time>2014-02-25T12:21:07.355+01:00</time>
            </trkpt>
            <trkpt lon="6.17005195" lat="49.12996223">
                <ele>164</ele>
                <time>2014-02-25T12:21:14.355+01:00</time>
            </trkpt>
            <trkpt lon="6.17012056" lat="49.12988167">
                <ele>165</ele>
                <time>2014-02-25T12:21:16.355+01:00</time>
            </trkpt>
            <trkpt lon="6.16895167" lat="49.13065667">
                <ele>159</ele>
                <time>2014-02-25T12:21:49.355+01:00</time>
            </trkpt>
            <trkpt lon="6.16925917" lat="49.13088445">
                <ele>158</ele>
                <time>2014-02-25T12:21:58.355+01:00</time>
            </trkpt>
            <trkpt lon="6.16975584" lat="49.13103667">
                <ele>159</ele>
                <time>2014-02-25T12:22:11.355+01:00</time>
            </trkpt>
            <trkpt lon="6.17038139" lat="49.13129223">
                <ele>158</ele>
                <time>2014-02-25T12:22:28.355+01:00</time>
            </trkpt>
            <trkpt lon="6.17089362" lat="49.13154528">
                <ele>158</ele>
                <time>2014-02-25T12:22:42.355+01:00</time>
            </trkpt>
            <trkpt lon="6.17094112" lat="49.13156001">
                <ele>158</ele>
                <time>2014-02-25T12:22:43.355+01:00</time>
            </trkpt>
            <trkpt lon="6.17169167" lat="49.13185667">
                <ele>160</ele>
                <time>2014-02-25T12:23:04.355+01:00</time>
            </trkpt>
            <trkpt lon="6.17170334" lat="49.13186862">
                <ele>160</ele>
                <time>2014-02-25T12:23:04.355+01:00</time>
            </trkpt>
            <trkpt lon="6.17326750" lat="49.13239862">
                <ele>161</ele>
                <time>2014-02-25T12:23:46.355+01:00</time>
            </trkpt>
            <trkpt lon="6.17446778" lat="49.13289139">
                <ele>160</ele>
                <time>2014-02-25T12:24:18.355+01:00</time>
            </trkpt>
            <trkpt lon="6.17528917" lat="49.13324473">
                <ele>158</ele>
                <time>2014-02-25T12:24:40.355+01:00</time>
            </trkpt>
            <trkpt lon="6.17562584" lat="49.13336778">
                <ele>158</ele>
                <time>2014-02-25T12:24:49.355+01:00</time>
            </trkpt>
            <trkpt lon="6.17562584" lat="49.13336778">
                <ele>158</ele>
                <time>2014-02-25T12:24:49.355+01:00</time>
            </trkpt>
            <trkpt lon="6.17660751" lat="49.13394223">
                <ele>159</ele>
                <time>2014-02-25T12:25:17.355+01:00</time>
            </trkpt>
            <trkpt lon="6.17657750" lat="49.13392917">
                <ele>159</ele>
                <time>2014-02-25T12:25:17.355+01:00</time>
            </trkpt>
            <trkpt lon="6.17686056" lat="49.13411889">
                <ele>159</ele>
                <time>2014-02-25T12:25:25.355+01:00</time>
            </trkpt>
            <trkpt lon="6.17719084" lat="49.13452750">
                <ele>159</ele>
                <time>2014-02-25T12:25:36.355+01:00</time>
            </trkpt>
            <trkpt lon="6.17769028" lat="49.13501001">
                <ele>159</ele>
                <time>2014-02-25T12:25:51.355+01:00</time>
            </trkpt>
            <trkpt lon="6.17767834" lat="49.13507584">
                <ele>159</ele>
                <time>2014-02-25T12:25:52.355+01:00</time>
            </trkpt>
            <trkpt lon="6.17889250" lat="49.13578528">
                <ele>159</ele>
                <time>2014-02-25T12:26:26.355+01:00</time>
            </trkpt>
            <trkpt lon="6.17987639" lat="49.13638862">
                <ele>160</ele>
                <time>2014-02-25T12:26:54.355+01:00</time>
            </trkpt>
            <trkpt lon="6.18057223" lat="49.13704501">
                <ele>161</ele>
                <time>2014-02-25T12:27:15.355+01:00</time>
            </trkpt>
            <trkpt lon="6.18154806" lat="49.13815778">
                <ele>162</ele>
                <time>2014-02-25T12:27:47.355+01:00</time>
            </trkpt>
            <trkpt lon="6.18233389" lat="49.13854139">
                <ele>160</ele>
                <time>2014-02-25T12:28:08.355+01:00</time>
            </trkpt>
            <trkpt lon="6.18530278" lat="49.13989362">
                <ele>162</ele>
                <time>2014-02-25T12:29:30.355+01:00</time>
            </trkpt>
            <trkpt lon="6.18778500" lat="49.14115306">
                <ele>166</ele>
                <time>2014-02-25T12:30:40.355+01:00</time>
            </trkpt>
            <trkpt lon="6.18845917" lat="49.14165945">
                <ele>163</ele>
                <time>2014-02-25T12:30:59.355+01:00</time>
            </trkpt>
            <trkpt lon="6.18912528" lat="49.14234417">
                <ele>155</ele>
                <time>2014-02-25T12:31:20.355+01:00</time>
            </trkpt>
            <trkpt lon="6.18998945" lat="49.14350445">
                <ele>157</ele>
                <time>2014-02-25T12:31:50.355+01:00</time>
            </trkpt>
            <trkpt lon="6.19034417" lat="49.14447667">
                <ele>159</ele>
                <time>2014-02-25T12:32:09.355+01:00</time>
            </trkpt>
            <trkpt lon="6.19052112" lat="49.14447667">
                <ele>159</ele>
                <time>2014-02-25T12:32:13.355+01:00</time>
            </trkpt>
            <trkpt lon="6.19049556" lat="49.14446889">
                <ele>159</ele>
                <time>2014-02-25T12:32:14.355+01:00</time>
            </trkpt>
            <trkpt lon="6.19274528" lat="49.14438417">
                <ele>157</ele>
                <time>2014-02-25T12:33:46.355+01:00</time>
            </trkpt>
            <trkpt lon="6.19498917" lat="49.14429278">
                <ele>157</ele>
                <time>2014-02-25T12:35:18.355+01:00</time>
            </trkpt>
            <trkpt lon="6.19580362" lat="49.14410973">
                <ele>157</ele>
                <time>2014-02-25T12:35:51.355+01:00</time>
            </trkpt>
            <trkpt lon="6.19636584" lat="49.14396612">
                <ele>157</ele>
                <time>2014-02-25T12:36:14.355+01:00</time>
            </trkpt>
            <trkpt lon="6.19643806" lat="49.14394362">
                <ele>157</ele>
                <time>2014-02-25T12:36:15.355+01:00</time>
            </trkpt>
            <trkpt lon="6.19733028" lat="49.14381084">
                <ele>156</ele>
                <time>2014-02-25T12:36:38.355+01:00</time>
            </trkpt>
            <trkpt lon="6.19781223" lat="49.14399528">
                <ele>155</ele>
                <time>2014-02-25T12:36:51.355+01:00</time>
            </trkpt>
            <trkpt lon="6.19797028" lat="49.14426500">
                <ele>156</ele>
                <time>2014-02-25T12:36:57.355+01:00</time>
            </trkpt>
            <trkpt lon="6.19818528" lat="49.14468723">
                <ele>157</ele>
                <time>2014-02-25T12:37:06.355+01:00</time>
            </trkpt>
            <trkpt lon="6.19899306" lat="49.14594084">
                <ele>156</ele>
                <time>2014-02-25T12:37:36.355+01:00</time>
            </trkpt>
            <trkpt lon="6.19970612" lat="49.14744695">
                <ele>155</ele>
                <time>2014-02-25T12:38:08.355+01:00</time>
            </trkpt>
            <trkpt lon="6.20014195" lat="49.14841139">
                <ele>157</ele>
                <time>2014-02-25T12:38:28.355+01:00</time>
            </trkpt>
            <trkpt lon="6.20068973" lat="49.14963889">
                <ele>160</ele>
                <time>2014-02-25T12:38:54.355+01:00</time>
            </trkpt>
            <trkpt lon="6.20104612" lat="49.15039723">
                <ele>160</ele>
                <time>2014-02-25T12:39:10.355+01:00</time>
            </trkpt>
            <trkpt lon="6.20111028" lat="49.15106973">
                <ele>158</ele>
                <time>2014-02-25T12:39:21.355+01:00</time>
            </trkpt>
            <trkpt lon="6.20112334" lat="49.15163612">
                <ele>157</ele>
                <time>2014-02-25T12:39:30.355+01:00</time>
            </trkpt>
            <trkpt lon="6.20143834" lat="49.15232389">
                <ele>157</ele>
                <time>2014-02-25T12:39:44.355+01:00</time>
            </trkpt>
            <trkpt lon="6.20145917" lat="49.15235417">
                <ele>157</ele>
                <time>2014-02-25T12:39:44.355+01:00</time>
            </trkpt>
            <trkpt lon="6.20151139" lat="49.15254806">
                <ele>157</ele>
                <time>2014-02-25T12:39:47.355+01:00</time>
            </trkpt>
            <trkpt lon="6.20111806" lat="49.15279028">
                <ele>157</ele>
                <time>2014-02-25T12:39:58.355+01:00</time>
            </trkpt>
            <trkpt lon="6.19931667" lat="49.15359001">
                <ele>155</ele>
                <time>2014-02-25T12:40:47.355+01:00</time>
            </trkpt>
            <trkpt lon="6.19805917" lat="49.15386306">
                <ele>158</ele>
                <time>2014-02-25T12:41:21.355+01:00</time>
            </trkpt>
            <trkpt lon="6.19731306" lat="49.15398445">
                <ele>155</ele>
                <time>2014-02-25T12:41:40.355+01:00</time>
            </trkpt>
            <trkpt lon="6.19733112" lat="49.15401612">
                <ele>155</ele>
                <time>2014-02-25T12:41:40.355+01:00</time>
            </trkpt>
            <trkpt lon="6.19612167" lat="49.15417612">
                <ele>154</ele>
                <time>2014-02-25T12:42:12.355+01:00</time>
            </trkpt>
            <trkpt lon="6.19317473" lat="49.15420750">
                <ele>157</ele>
                <time>2014-02-25T12:43:30.355+01:00</time>
            </trkpt>
            <trkpt lon="6.19257278" lat="49.15442389">
                <ele>156</ele>
                <time>2014-02-25T12:43:46.355+01:00</time>
            </trkpt>
            <trkpt lon="6.19259250" lat="49.15496584">
                <ele>156</ele>
                <time>2014-02-25T12:43:55.355+01:00</time>
            </trkpt>
            <trkpt lon="6.19573778" lat="49.15503278">
                <ele>158</ele>
                <time>2014-02-25T12:45:18.355+01:00</time>
            </trkpt>
            <trkpt lon="6.19783028" lat="49.15514278">
                <ele>159</ele>
                <time>2014-02-25T12:46:13.355+01:00</time>
            </trkpt>
            <trkpt lon="6.19804889" lat="49.15544056">
                <ele>158</ele>
                <time>2014-02-25T12:46:20.355+01:00</time>
            </trkpt>
            <trkpt lon="6.19784001" lat="49.15691473">
                <ele>159</ele>
                <time>2014-02-25T12:46:46.355+01:00</time>
            </trkpt>
            <trkpt lon="6.19802028" lat="49.15757667">
                <ele>160</ele>
                <time>2014-02-25T12:46:58.355+01:00</time>
            </trkpt>
            <trkpt lon="6.19782028" lat="49.15845750">
                <ele>158</ele>
                <time>2014-02-25T12:47:14.355+01:00</time>
            </trkpt>
            <trkpt lon="6.19698528" lat="49.15872695">
                <ele>162</ele>
                <time>2014-02-25T12:47:37.355+01:00</time>
            </trkpt>
            <trkpt lon="6.19699501" lat="49.16036167">
                <ele>160</ele>
                <time>2014-02-25T12:48:05.355+01:00</time>
            </trkpt>
            <trkpt lon="6.19708612" lat="49.16125528">
                <ele>159</ele>
                <time>2014-02-25T12:48:20.355+01:00</time>
            </trkpt>
            <trkpt lon="6.19727528" lat="49.16139806">
                <ele>159</ele>
                <time>2014-02-25T12:48:25.355+01:00</time>
            </trkpt>
            <trkpt lon="6.19714167" lat="49.16130500">
                <ele>158</ele>
                <time>2014-02-25T12:48:28.355+01:00</time>
            </trkpt>
            <trkpt lon="6.19799695" lat="49.16189084">
                <ele>160</ele>
                <time>2014-02-25T12:48:53.355+01:00</time>
            </trkpt>
            <trkpt lon="6.19864862" lat="49.16301806">
                <ele>156</ele>
                <time>2014-02-25T12:49:19.355+01:00</time>
            </trkpt>
            <trkpt lon="6.19998723" lat="49.16407945">
                <ele>156</ele>
                <time>2014-02-25T12:49:58.355+01:00</time>
            </trkpt>
            <trkpt lon="6.20103556" lat="49.16488445">
                <ele>158</ele>
                <time>2014-02-25T12:50:29.355+01:00</time>
            </trkpt>
            <trkpt lon="6.20220445" lat="49.16583778">
                <ele>158</ele>
                <time>2014-02-25T12:51:04.355+01:00</time>
            </trkpt>
            <trkpt lon="6.20335139" lat="49.16756334">
                <ele>153</ele>
                <time>2014-02-25T12:51:46.355+01:00</time>
            </trkpt>
            <trkpt lon="6.20367445" lat="49.16964112">
                <ele>150</ele>
                <time>2014-02-25T12:52:23.355+01:00</time>
            </trkpt>
            <trkpt lon="6.20382001" lat="49.17234334">
                <ele>159</ele>
                <time>2014-02-25T12:53:12.355+01:00</time>
            </trkpt>
            <trkpt lon="6.20406389" lat="49.17387584">
                <ele>160</ele>
                <time>2014-02-25T12:53:39.355+01:00</time>
            </trkpt>
            <trkpt lon="6.20394917" lat="49.17543334">
                <ele>163</ele>
                <time>2014-02-25T12:54:06.355+01:00</time>
            </trkpt>
            <trkpt lon="6.20332056" lat="49.17800667">
                <ele>156</ele>
                <time>2014-02-25T12:54:53.355+01:00</time>
            </trkpt>
            <trkpt lon="6.20287695" lat="49.17856639">
                <ele>159</ele>
                <time>2014-02-25T12:55:08.355+01:00</time>
            </trkpt>
            <trkpt lon="6.20201334" lat="49.17883889">
                <ele>159</ele>
                <time>2014-02-25T12:55:31.355+01:00</time>
            </trkpt>
            <trkpt lon="6.20014112" lat="49.17926445">
                <ele>158</ele>
                <time>2014-02-25T12:56:21.355+01:00</time>
            </trkpt>
            <trkpt lon="6.19937056" lat="49.17940223">
                <ele>157</ele>
                <time>2014-02-25T12:56:41.355+01:00</time>
            </trkpt>
            <trkpt lon="6.19937056" lat="49.17940223">
                <ele>157</ele>
                <time>2014-02-25T12:56:41.355+01:00</time>
            </trkpt>
            <trkpt lon="6.19589362" lat="49.18032862">
                <ele>154</ele>
                <time>2014-02-25T12:58:14.355+01:00</time>
            </trkpt>
            <trkpt lon="6.19457695" lat="49.18066362">
                <ele>156</ele>
                <time>2014-02-25T12:58:49.355+01:00</time>
            </trkpt>
            <trkpt lon="6.19255306" lat="49.18127556">
                <ele>155</ele>
                <time>2014-02-25T12:59:43.355+01:00</time>
            </trkpt>
            <trkpt lon="6.19022750" lat="49.18208306">
                <ele>155</ele>
                <time>2014-02-25T13:00:46.355+01:00</time>
            </trkpt>
            <trkpt lon="6.18918584" lat="49.18250834">
                <ele>155</ele>
                <time>2014-02-25T13:01:14.355+01:00</time>
            </trkpt>
            <trkpt lon="6.18762889" lat="49.18342639">
                <ele>154</ele>
                <time>2014-02-25T13:01:58.355+01:00</time>
            </trkpt>
            <trkpt lon="6.18582612" lat="49.18535556">
                <ele>157</ele>
                <time>2014-02-25T13:02:57.355+01:00</time>
            </trkpt>
            <trkpt lon="6.18504334" lat="49.18589139">
                <ele>157</ele>
                <time>2014-02-25T13:03:19.355+01:00</time>
            </trkpt>
            <trkpt lon="6.18433362" lat="49.18596639">
                <ele>154</ele>
                <time>2014-02-25T13:03:37.355+01:00</time>
            </trkpt>
            <trkpt lon="6.18439278" lat="49.18603167">
                <ele>154</ele>
                <time>2014-02-25T13:03:38.355+01:00</time>
            </trkpt>
            <trkpt lon="6.18424445" lat="49.18778584">
                <ele>157</ele>
                <time>2014-02-25T13:04:09.355+01:00</time>
            </trkpt>
            <trkpt lon="6.18501528" lat="49.18809917">
                <ele>158</ele>
                <time>2014-02-25T13:04:30.355+01:00</time>
            </trkpt>
            <trkpt lon="6.18567250" lat="49.18806473">
                <ele>157</ele>
                <time>2014-02-25T13:04:47.355+01:00</time>
            </trkpt>
            <trkpt lon="6.18634945" lat="49.18792973">
                <ele>155</ele>
                <time>2014-02-25T13:05:05.355+01:00</time>
            </trkpt>
            <trkpt lon="6.18696139" lat="49.18855862">
                <ele>154</ele>
                <time>2014-02-25T13:05:24.355+01:00</time>
            </trkpt>
            <trkpt lon="6.18758945" lat="49.18947778">
                <ele>155</ele>
                <time>2014-02-25T13:05:47.355+01:00</time>
            </trkpt>
            <trkpt lon="6.18830389" lat="49.19007917">
                <ele>152</ele>
                <time>2014-02-25T13:06:08.355+01:00</time>
            </trkpt>
            <trkpt lon="6.18894556" lat="49.19053223">
                <ele>154</ele>
                <time>2014-02-25T13:06:27.355+01:00</time>
            </trkpt>
            <trkpt lon="6.18867112" lat="49.19075834">
                <ele>153</ele>
                <time>2014-02-25T13:06:35.355+01:00</time>
            </trkpt>
            <trkpt lon="6.18997667" lat="49.19185306">
                <ele>153</ele>
                <time>2014-02-25T13:07:14.355+01:00</time>
            </trkpt>
            <trkpt lon="6.19019306" lat="49.19267084">
                <ele>152</ele>
                <time>2014-02-25T13:07:29.355+01:00</time>
            </trkpt>
            <trkpt lon="6.19141473" lat="49.19415445">
                <ele>154</ele>
                <time>2014-02-25T13:08:10.355+01:00</time>
            </trkpt>
            <trkpt lon="6.19142112" lat="49.19413501">
                <ele>154</ele>
                <time>2014-02-25T13:08:10.355+01:00</time>
            </trkpt>
            <trkpt lon="6.18916639" lat="49.19491445">
                <ele>155</ele>
                <time>2014-02-25T13:09:11.355+01:00</time>
            </trkpt>
            <trkpt lon="6.18852334" lat="49.19502473">
                <ele>155</ele>
                <time>2014-02-25T13:09:28.355+01:00</time>
            </trkpt>
            <trkpt lon="6.18726028" lat="49.19490139">
                <ele>154</ele>
                <time>2014-02-25T13:10:01.355+01:00</time>
            </trkpt>
            <trkpt lon="6.18648223" lat="49.19534501">
                <ele>155</ele>
                <time>2014-02-25T13:10:23.355+01:00</time>
            </trkpt>
            <trkpt lon="6.18604889" lat="49.19588223">
                <ele>156</ele>
                <time>2014-02-25T13:10:38.355+01:00</time>
            </trkpt>
            <trkpt lon="6.18555278" lat="49.19680223">
                <ele>160</ele>
                <time>2014-02-25T13:10:59.355+01:00</time>
            </trkpt>
            <trkpt lon="6.18509306" lat="49.19827084">
                <ele>157</ele>
                <time>2014-02-25T13:11:27.355+01:00</time>
            </trkpt>
            <trkpt lon="6.18480750" lat="49.19981084">
                <ele>155</ele>
                <time>2014-02-25T13:11:54.355+01:00</time>
            </trkpt>
            <trkpt lon="6.18481889" lat="49.19961056">
                <ele>156</ele>
                <time>2014-02-25T13:11:57.355+01:00</time>
            </trkpt>
            <trkpt lon="6.18448889" lat="49.20011001">
                <ele>155</ele>
                <time>2014-02-25T13:12:09.355+01:00</time>
            </trkpt>
            <trkpt lon="6.18348695" lat="49.20013584">
                <ele>155</ele>
                <time>2014-02-25T13:12:35.355+01:00</time>
            </trkpt>
            <trkpt lon="6.18381223" lat="49.20013667">
                <ele>155</ele>
                <time>2014-02-25T13:12:43.355+01:00</time>
            </trkpt>
            <trkpt lon="6.18291556" lat="49.20016000">
                <ele>154</ele>
                <time>2014-02-25T13:13:06.355+01:00</time>
            </trkpt>
            <trkpt lon="6.18165223" lat="49.20041945">
                <ele>157</ele>
                <time>2014-02-25T13:13:40.355+01:00</time>
            </trkpt>
            <trkpt lon="6.18093500" lat="49.20063667">
                <ele>158</ele>
                <time>2014-02-25T13:13:59.355+01:00</time>
            </trkpt>
            <trkpt lon="6.18091084" lat="49.20066584">
                <ele>158</ele>
                <time>2014-02-25T13:13:59.355+01:00</time>
            </trkpt>
            <trkpt lon="6.18078695" lat="49.20155500">
                <ele>160</ele>
                <time>2014-02-25T13:14:15.355+01:00</time>
            </trkpt>
            <trkpt lon="6.18078695" lat="49.20155500">
                <ele>160</ele>
                <time>2014-02-25T13:14:15.355+01:00</time>
            </trkpt>
            <trkpt lon="6.18079389" lat="49.20310973">
                <ele>156</ele>
                <time>2014-02-25T13:14:41.355+01:00</time>
            </trkpt>
            <trkpt lon="6.18079834" lat="49.20392389">
                <ele>148</ele>
                <time>2014-02-25T13:14:55.355+01:00</time>
            </trkpt>
            <trkpt lon="6.18100028" lat="49.20516362">
                <ele>147</ele>
                <time>2014-02-25T13:15:17.355+01:00</time>
            </trkpt>
            <trkpt lon="6.18106112" lat="49.20553667">
                <ele>151</ele>
                <time>2014-02-25T13:15:24.355+01:00</time>
            </trkpt>
            <trkpt lon="6.18111278" lat="49.20588834">
                <ele>151</ele>
                <time>2014-02-25T13:15:30.355+01:00</time>
            </trkpt>
            <trkpt lon="6.18116667" lat="49.20613362">
                <ele>154</ele>
                <time>2014-02-25T13:15:35.355+01:00</time>
            </trkpt>
            <trkpt lon="6.18128084" lat="49.20665723">
                <ele>155</ele>
                <time>2014-02-25T13:15:44.355+01:00</time>
            </trkpt>
            <trkpt lon="6.18142084" lat="49.20837778">
                <ele>148</ele>
                <time>2014-02-25T13:16:14.355+01:00</time>
            </trkpt>
            <trkpt lon="6.18168806" lat="49.21070528">
                <ele>152</ele>
                <time>2014-02-25T13:16:55.355+01:00</time>
            </trkpt>
            <trkpt lon="6.18193667" lat="49.21272306">
                <ele>152</ele>
                <time>2014-02-25T13:17:30.355+01:00</time>
            </trkpt>
            <trkpt lon="6.18216917" lat="49.21470473">
                <ele>146</ele>
                <time>2014-02-25T13:18:04.355+01:00</time>
            </trkpt>
            <trkpt lon="6.18236362" lat="49.21648639">
                <ele>151</ele>
                <time>2014-02-25T13:18:36.355+01:00</time>
            </trkpt>
            <trkpt lon="6.18256112" lat="49.21771389">
                <ele>156</ele>
                <time>2014-02-25T13:18:59.355+01:00</time>
            </trkpt>
            <trkpt lon="6.18256112" lat="49.21771389">
                <ele>156</ele>
                <time>2014-02-25T13:18:59.355+01:00</time>
            </trkpt>
            <trkpt lon="6.18262223" lat="49.21823917">
                <ele>158</ele>
                <time>2014-02-25T13:19:08.355+01:00</time>
            </trkpt>
            <trkpt lon="6.18265778" lat="49.21825195">
                <ele>158</ele>
                <time>2014-02-25T13:19:08.355+01:00</time>
            </trkpt>
            <trkpt lon="6.18281250" lat="49.22008028">
                <ele>156</ele>
                <time>2014-02-25T13:19:39.355+01:00</time>
            </trkpt>
            <trkpt lon="6.18295139" lat="49.22115445">
                <ele>156</ele>
                <time>2014-02-25T13:19:57.355+01:00</time>
            </trkpt>
            <trkpt lon="6.18322362" lat="49.22331584">
                <ele>165</ele>
                <time>2014-02-25T13:20:37.355+01:00</time>
            </trkpt>
            <trkpt lon="6.18355667" lat="49.22672528">
                <ele>159</ele>
                <time>2014-02-25T13:21:36.355+01:00</time>
            </trkpt>
            <trkpt lon="6.18373334" lat="49.22819278">
                <ele>156</ele>
                <time>2014-02-25T13:22:01.355+01:00</time>
            </trkpt>
            <trkpt lon="6.18374528" lat="49.22852750">
                <ele>155</ele>
                <time>2014-02-25T13:22:06.355+01:00</time>
            </trkpt>
            <trkpt lon="6.18393806" lat="49.22994945">
                <ele>152</ele>
                <time>2014-02-25T13:22:31.355+01:00</time>
            </trkpt>
            <trkpt lon="6.18390501" lat="49.23010278">
                <ele>153</ele>
                <time>2014-02-25T13:22:34.355+01:00</time>
            </trkpt>
            <trkpt lon="6.18390501" lat="49.23010278">
                <ele>153</ele>
                <time>2014-02-25T13:22:34.355+01:00</time>
            </trkpt>
            <trkpt lon="6.18393945" lat="49.23044695">
                <ele>155</ele>
                <time>2014-02-25T13:22:40.355+01:00</time>
            </trkpt>
            <trkpt lon="6.18393945" lat="49.23044695">
                <ele>155</ele>
                <time>2014-02-25T13:22:40.355+01:00</time>
            </trkpt>
            <trkpt lon="6.18410250" lat="49.23062528">
                <ele>156</ele>
                <time>2014-02-25T13:22:45.355+01:00</time>
            </trkpt>
            <trkpt lon="6.18402945" lat="49.23216528">
                <ele>161</ele>
                <time>2014-02-25T13:23:12.355+01:00</time>
            </trkpt>
            <trkpt lon="6.18391389" lat="49.23323334">
                <ele>155</ele>
                <time>2014-02-25T13:23:30.355+01:00</time>
            </trkpt>
            <trkpt lon="6.18368750" lat="49.23401334">
                <ele>149</ele>
                <time>2014-02-25T13:23:44.355+01:00</time>
            </trkpt>
            <trkpt lon="6.18327417" lat="49.23616973">
                <ele>144</ele>
                <time>2014-02-25T13:24:22.355+01:00</time>
            </trkpt>
            <trkpt lon="6.18308917" lat="49.23713556">
                <ele>151</ele>
                <time>2014-02-25T13:24:41.355+01:00</time>
            </trkpt>
            <trkpt lon="6.18309500" lat="49.23773695">
                <ele>155</ele>
                <time>2014-02-25T13:24:52.355+01:00</time>
            </trkpt>
            <trkpt lon="6.18314028" lat="49.23835195">
                <ele>154</ele>
                <time>2014-02-25T13:25:02.355+01:00</time>
            </trkpt>
            <trkpt lon="6.18314167" lat="49.23834389">
                <ele>154</ele>
                <time>2014-02-25T13:25:02.355+01:00</time>
            </trkpt>
            <trkpt lon="6.18281139" lat="49.23932389">
                <ele>150</ele>
                <time>2014-02-25T13:25:21.355+01:00</time>
            </trkpt>
            <trkpt lon="6.18269278" lat="49.23975639">
                <ele>149</ele>
                <time>2014-02-25T13:25:29.355+01:00</time>
            </trkpt>
            <trkpt lon="6.18255278" lat="49.24069584">
                <ele>148</ele>
                <time>2014-02-25T13:25:45.355+01:00</time>
            </trkpt>
            <trkpt lon="6.18232723" lat="49.24165806">
                <ele>150</ele>
                <time>2014-02-25T13:26:03.355+01:00</time>
            </trkpt>
            <trkpt lon="6.18236750" lat="49.24161139">
                <ele>150</ele>
                <time>2014-02-25T13:26:04.355+01:00</time>
            </trkpt>
            <trkpt lon="6.18226639" lat="49.24220612">
                <ele>149</ele>
                <time>2014-02-25T13:26:14.355+01:00</time>
            </trkpt>
            <trkpt lon="6.18222389" lat="49.24221751">
                <ele>149</ele>
                <time>2014-02-25T13:26:15.355+01:00</time>
            </trkpt>
            <trkpt lon="6.18215112" lat="49.24295445">
                <ele>146</ele>
                <time>2014-02-25T13:26:27.355+01:00</time>
            </trkpt>
            <trkpt lon="6.18184223" lat="49.24441834">
                <ele>140</ele>
                <time>2014-02-25T13:26:53.355+01:00</time>
            </trkpt>
            <trkpt lon="6.18150473" lat="49.24619723">
                <ele>142</ele>
                <time>2014-02-25T13:27:25.355+01:00</time>
            </trkpt>
            <trkpt lon="6.18122889" lat="49.24759001">
                <ele>150</ele>
                <time>2014-02-25T13:27:52.355+01:00</time>
            </trkpt>
            <trkpt lon="6.18108417" lat="49.24870195">
                <ele>154</ele>
                <time>2014-02-25T13:28:12.355+01:00</time>
            </trkpt>
            <trkpt lon="6.18108417" lat="49.24870195">
                <ele>154</ele>
                <time>2014-02-25T13:28:12.355+01:00</time>
            </trkpt>
            <trkpt lon="6.18099639" lat="49.24917584">
                <ele>151</ele>
                <time>2014-02-25T13:28:20.355+01:00</time>
            </trkpt>
            <trkpt lon="6.18104167" lat="49.24913917">
                <ele>152</ele>
                <time>2014-02-25T13:28:21.355+01:00</time>
            </trkpt>
            <trkpt lon="6.18104389" lat="49.24949362">
                <ele>151</ele>
                <time>2014-02-25T13:28:27.355+01:00</time>
            </trkpt>
            <trkpt lon="6.18098667" lat="49.24983862">
                <ele>149</ele>
                <time>2014-02-25T13:28:33.355+01:00</time>
            </trkpt>
            <trkpt lon="6.18085862" lat="49.25208528">
                <ele>148</ele>
                <time>2014-02-25T13:29:12.355+01:00</time>
            </trkpt>
            <trkpt lon="6.18077139" lat="49.25506362">
                <ele>144</ele>
                <time>2014-02-25T13:30:03.355+01:00</time>
            </trkpt>
            <trkpt lon="6.18084000" lat="49.25656056">
                <ele>147</ele>
                <time>2014-02-25T13:30:29.355+01:00</time>
            </trkpt>
            <trkpt lon="6.18093917" lat="49.25832445">
                <ele>151</ele>
                <time>2014-02-25T13:31:00.355+01:00</time>
            </trkpt>
            <trkpt lon="6.18107834" lat="49.26099445">
                <ele>150</ele>
                <time>2014-02-25T13:31:46.355+01:00</time>
            </trkpt>
            <trkpt lon="6.18117584" lat="49.26154695">
                <ele>152</ele>
                <time>2014-02-25T13:31:56.355+01:00</time>
            </trkpt>
            <trkpt lon="6.18109445" lat="49.26182778">
                <ele>152</ele>
                <time>2014-02-25T13:32:01.355+01:00</time>
            </trkpt>
            <trkpt lon="6.18122362" lat="49.26178528">
                <ele>151</ele>
                <time>2014-02-25T13:32:04.355+01:00</time>
            </trkpt>
            <trkpt lon="6.18120945" lat="49.26236417">
                <ele>154</ele>
                <time>2014-02-25T13:32:14.355+01:00</time>
            </trkpt>
            <trkpt lon="6.18120084" lat="49.26231278">
                <ele>154</ele>
                <time>2014-02-25T13:32:14.355+01:00</time>
            </trkpt>
            <trkpt lon="6.18124112" lat="49.26281501">
                <ele>155</ele>
                <time>2014-02-25T13:32:22.355+01:00</time>
            </trkpt>
            <trkpt lon="6.18127167" lat="49.26324778">
                <ele>156</ele>
                <time>2014-02-25T13:32:29.355+01:00</time>
            </trkpt>
            <trkpt lon="6.18128778" lat="49.26404973">
                <ele>152</ele>
                <time>2014-02-25T13:32:42.355+01:00</time>
            </trkpt>
            <trkpt lon="6.18128778" lat="49.26404973">
                <ele>152</ele>
                <time>2014-02-25T13:32:42.355+01:00</time>
            </trkpt>
            <trkpt lon="6.18138917" lat="49.26571362">
                <ele>151</ele>
                <time>2014-02-25T13:33:10.355+01:00</time>
            </trkpt>
            <trkpt lon="6.18164167" lat="49.26866195">
                <ele>150</ele>
                <time>2014-02-25T13:34:01.355+01:00</time>
            </trkpt>
            <trkpt lon="6.18175639" lat="49.27079556">
                <ele>147</ele>
                <time>2014-02-25T13:34:38.355+01:00</time>
            </trkpt>
            <trkpt lon="6.18191945" lat="49.27303723">
                <ele>149</ele>
                <time>2014-02-25T13:35:17.355+01:00</time>
            </trkpt>
            <trkpt lon="6.18212806" lat="49.27616112">
                <ele>145</ele>
                <time>2014-02-25T13:36:11.355+01:00</time>
            </trkpt>
            <trkpt lon="6.18230667" lat="49.27813556">
                <ele>148</ele>
                <time>2014-02-25T13:36:46.355+01:00</time>
            </trkpt>
            <trkpt lon="6.18255417" lat="49.27882001">
                <ele>149</ele>
                <time>2014-02-25T13:36:59.355+01:00</time>
            </trkpt>
            <trkpt lon="6.18115417" lat="49.27890417">
                <ele>150</ele>
                <time>2014-02-25T13:37:36.355+01:00</time>
            </trkpt>
            <trkpt lon="6.18107695" lat="49.27888112">
                <ele>150</ele>
                <time>2014-02-25T13:37:38.355+01:00</time>
            </trkpt>
            <trkpt lon="6.18144862" lat="49.27969945">
                <ele>149</ele>
                <time>2014-02-25T13:37:55.355+01:00</time>
            </trkpt>
            <trkpt lon="6.18160723" lat="49.28043334">
                <ele>147</ele>
                <time>2014-02-25T13:38:08.355+01:00</time>
            </trkpt>
            <trkpt lon="6.18164389" lat="49.28137473">
                <ele>157</ele>
                <time>2014-02-25T13:38:26.355+01:00</time>
            </trkpt>
            <trkpt lon="6.18164389" lat="49.28137473">
                <ele>157</ele>
                <time>2014-02-25T13:38:26.355+01:00</time>
            </trkpt>
            <trkpt lon="6.18163750" lat="49.28231167">
                <ele>157</ele>
                <time>2014-02-25T13:38:42.355+01:00</time>
            </trkpt>
            <trkpt lon="6.18178889" lat="49.28308889">
                <ele>154</ele>
                <time>2014-02-25T13:38:56.355+01:00</time>
            </trkpt>
            <trkpt lon="6.18169139" lat="49.28451667">
                <ele>150</ele>
                <time>2014-02-25T13:39:20.355+01:00</time>
            </trkpt>
            <trkpt lon="6.18186778" lat="49.28550973">
                <ele>151</ele>
                <time>2014-02-25T13:39:38.355+01:00</time>
            </trkpt>
            <trkpt lon="6.18187723" lat="49.28717723">
                <ele>153</ele>
                <time>2014-02-25T13:40:07.355+01:00</time>
            </trkpt>
            <trkpt lon="6.18165862" lat="49.28788389">
                <ele>151</ele>
                <time>2014-02-25T13:40:20.355+01:00</time>
            </trkpt>
            <trkpt lon="6.18159612" lat="49.28859889">
                <ele>152</ele>
                <time>2014-02-25T13:40:32.355+01:00</time>
            </trkpt>
            <trkpt lon="6.18103862" lat="49.28990334">
                <ele>153</ele>
                <time>2014-02-25T13:40:59.355+01:00</time>
            </trkpt>
            <trkpt lon="6.18035112" lat="49.29096112">
                <ele>152</ele>
                <time>2014-02-25T13:41:24.355+01:00</time>
            </trkpt>
            <trkpt lon="6.17933251" lat="49.29240167">
                <ele>151</ele>
                <time>2014-02-25T13:42:00.355+01:00</time>
            </trkpt>
            <trkpt lon="6.17860528" lat="49.29316806">
                <ele>149</ele>
                <time>2014-02-25T13:42:23.355+01:00</time>
            </trkpt>
            <trkpt lon="6.17860528" lat="49.29316806">
                <ele>149</ele>
                <time>2014-02-25T13:42:23.355+01:00</time>
            </trkpt>
            <trkpt lon="6.17784556" lat="49.29370945">
                <ele>149</ele>
                <time>2014-02-25T13:42:45.355+01:00</time>
            </trkpt>
            <trkpt lon="6.17788167" lat="49.29371028">
                <ele>149</ele>
                <time>2014-02-25T13:42:45.355+01:00</time>
            </trkpt>
            <trkpt lon="6.17653778" lat="49.29437917">
                <ele>150</ele>
                <time>2014-02-25T13:43:22.355+01:00</time>
            </trkpt>
            <trkpt lon="6.17516750" lat="49.29504806">
                <ele>151</ele>
                <time>2014-02-25T13:44:00.355+01:00</time>
            </trkpt>
            <trkpt lon="6.17380862" lat="49.29557445">
                <ele>151</ele>
                <time>2014-02-25T13:44:37.355+01:00</time>
            </trkpt>
            <trkpt lon="6.17169723" lat="49.29653445">
                <ele>153</ele>
                <time>2014-02-25T13:45:35.355+01:00</time>
            </trkpt>
            <trkpt lon="6.17018056" lat="49.29727112">
                <ele>154</ele>
                <time>2014-02-25T13:46:17.355+01:00</time>
            </trkpt>
            <trkpt lon="6.16934695" lat="49.29784584">
                <ele>152</ele>
                <time>2014-02-25T13:46:41.355+01:00</time>
            </trkpt>
            <trkpt lon="6.16893417" lat="49.29805778">
                <ele>152</ele>
                <time>2014-02-25T13:46:52.355+01:00</time>
            </trkpt>
            <trkpt lon="6.16893639" lat="49.29802223">
                <ele>151</ele>
                <time>2014-02-25T13:46:52.355+01:00</time>
            </trkpt>
            <trkpt lon="6.16818334" lat="49.29845612">
                <ele>151</ele>
                <time>2014-02-25T13:47:13.355+01:00</time>
            </trkpt>
            <trkpt lon="6.16829250" lat="49.29845862">
                <ele>151</ele>
                <time>2014-02-25T13:47:15.355+01:00</time>
            </trkpt>
            <trkpt lon="6.16709362" lat="49.29920445">
                <ele>154</ele>
                <time>2014-02-25T13:47:49.355+01:00</time>
            </trkpt>
            <trkpt lon="6.16612917" lat="49.30000056">
                <ele>159</ele>
                <time>2014-02-25T13:48:19.355+01:00</time>
            </trkpt>
            <trkpt lon="6.16484445" lat="49.30113556">
                <ele>159</ele>
                <time>2014-02-25T13:48:58.355+01:00</time>
            </trkpt>
            <trkpt lon="6.16412278" lat="49.30197500">
                <ele>162</ele>
                <time>2014-02-25T13:49:22.355+01:00</time>
            </trkpt>
            <trkpt lon="6.16352556" lat="49.30247056">
                <ele>160</ele>
                <time>2014-02-25T13:49:39.355+01:00</time>
            </trkpt>
            <trkpt lon="6.16271584" lat="49.30329723">
                <ele>159</ele>
                <time>2014-02-25T13:50:04.355+01:00</time>
            </trkpt>
            <trkpt lon="6.16198584" lat="49.30417889">
                <ele>161</ele>
                <time>2014-02-25T13:50:29.355+01:00</time>
            </trkpt>
            <trkpt lon="6.16116306" lat="49.30553667">
                <ele>161</ele>
                <time>2014-02-25T13:51:01.355+01:00</time>
            </trkpt>
            <trkpt lon="6.16081000" lat="49.30576612">
                <ele>161</ele>
                <time>2014-02-25T13:51:11.355+01:00</time>
            </trkpt>
            <trkpt lon="6.16045917" lat="49.30701139">
                <ele>167</ele>
                <time>2014-02-25T13:51:35.355+01:00</time>
            </trkpt>
            <trkpt lon="6.16037001" lat="49.30814389">
                <ele>163</ele>
                <time>2014-02-25T13:51:54.355+01:00</time>
            </trkpt>
            <trkpt lon="6.16065001" lat="49.30894973">
                <ele>160</ele>
                <time>2014-02-25T13:52:09.355+01:00</time>
            </trkpt>
            <trkpt lon="6.16099362" lat="49.30968195">
                <ele>161</ele>
                <time>2014-02-25T13:52:24.355+01:00</time>
            </trkpt>
            <trkpt lon="6.16198112" lat="49.31089778">
                <ele>151</ele>
                <time>2014-02-25T13:52:57.355+01:00</time>
            </trkpt>
            <trkpt lon="6.16345445" lat="49.31188834">
                <ele>151</ele>
                <time>2014-02-25T13:53:39.355+01:00</time>
            </trkpt>
            <trkpt lon="6.16548334" lat="49.31306223">
                <ele>152</ele>
                <time>2014-02-25T13:54:36.355+01:00</time>
            </trkpt>
            <trkpt lon="6.16640973" lat="49.31364251">
                <ele>151</ele>
                <time>2014-02-25T13:55:02.355+01:00</time>
            </trkpt>
            <trkpt lon="6.16727251" lat="49.31475556">
                <ele>153</ele>
                <time>2014-02-25T13:55:32.355+01:00</time>
            </trkpt>
            <trkpt lon="6.16810167" lat="49.31624695">
                <ele>151</ele>
                <time>2014-02-25T13:56:05.355+01:00</time>
            </trkpt>
            <trkpt lon="6.16865278" lat="49.31730834">
                <ele>161</ele>
                <time>2014-02-25T13:56:30.355+01:00</time>
            </trkpt>
            <trkpt lon="6.16869056" lat="49.31841778">
                <ele>162</ele>
                <time>2014-02-25T13:56:49.355+01:00</time>
            </trkpt>
            <trkpt lon="6.16819750" lat="49.31953195">
                <ele>161</ele>
                <time>2014-02-25T13:57:12.355+01:00</time>
            </trkpt>
            <trkpt lon="6.16770306" lat="49.32030806">
                <ele>162</ele>
                <time>2014-02-25T13:57:30.355+01:00</time>
            </trkpt>
            <trkpt lon="6.16749723" lat="49.32073056">
                <ele>159</ele>
                <time>2014-02-25T13:57:39.355+01:00</time>
            </trkpt>
            <trkpt lon="6.16773973" lat="49.32131278">
                <ele>158</ele>
                <time>2014-02-25T13:57:50.355+01:00</time>
            </trkpt>
            <trkpt lon="6.16825695" lat="49.32140667">
                <ele>159</ele>
                <time>2014-02-25T13:58:04.355+01:00</time>
            </trkpt>
            <trkpt lon="6.16825695" lat="49.32140667">
                <ele>159</ele>
                <time>2014-02-25T13:58:04.355+01:00</time>
            </trkpt>
            <trkpt lon="6.16820667" lat="49.32185306">
                <ele>161</ele>
                <time>2014-02-25T13:58:12.355+01:00</time>
            </trkpt>
            <trkpt lon="6.16776223" lat="49.32270445">
                <ele>167</ele>
                <time>2014-02-25T13:58:32.355+01:00</time>
            </trkpt>
            <trkpt lon="6.16734167" lat="49.32415445">
                <ele>167</ele>
                <time>2014-02-25T13:58:59.355+01:00</time>
            </trkpt>
            <trkpt lon="6.16727112" lat="49.32538306">
                <ele>181</ele>
                <time>2014-02-25T13:59:23.355+01:00</time>
            </trkpt>
            <trkpt lon="6.16738889" lat="49.32721501">
                <ele>184</ele>
                <time>2014-02-25T13:59:55.355+01:00</time>
            </trkpt>
            <trkpt lon="6.16753334" lat="49.32946000">
                <ele>171</ele>
                <time>2014-02-25T14:00:33.355+01:00</time>
            </trkpt>
            <trkpt lon="6.16778473" lat="49.33206112">
                <ele>168</ele>
                <time>2014-02-25T14:01:18.355+01:00</time>
            </trkpt>
            <trkpt lon="6.16805112" lat="49.33525806">
                <ele>172</ele>
                <time>2014-02-25T14:02:14.355+01:00</time>
            </trkpt>
            <trkpt lon="6.16805112" lat="49.33525806">
                <ele>172</ele>
                <time>2014-02-25T14:02:14.355+01:00</time>
            </trkpt>
            <trkpt lon="6.16817862" lat="49.33675195">
                <ele>168</ele>
                <time>2014-02-25T14:02:40.355+01:00</time>
            </trkpt>
            <trkpt lon="6.16869639" lat="49.33809195">
                <ele>166</ele>
                <time>2014-02-25T14:03:06.355+01:00</time>
            </trkpt>
            <trkpt lon="6.16907306" lat="49.33912778">
                <ele>170</ele>
                <time>2014-02-25T14:03:27.355+01:00</time>
            </trkpt>
            <trkpt lon="6.16982889" lat="49.34139278">
                <ele>176</ele>
                <time>2014-02-25T14:04:12.355+01:00</time>
            </trkpt>
            <trkpt lon="6.17000000" lat="49.34213834">
                <ele>174</ele>
                <time>2014-02-25T14:04:25.355+01:00</time>
            </trkpt>
            <trkpt lon="6.16940251" lat="49.34334834">
                <ele>160</ele>
                <time>2014-02-25T14:04:51.355+01:00</time>
            </trkpt>
            <trkpt lon="6.16866167" lat="49.34409084">
                <ele>158</ele>
                <time>2014-02-25T14:05:14.355+01:00</time>
            </trkpt>
            <trkpt lon="6.16784639" lat="49.34457389">
                <ele>158</ele>
                <time>2014-02-25T14:05:37.355+01:00</time>
            </trkpt>
            <trkpt lon="6.16683584" lat="49.34528334">
                <ele>158</ele>
                <time>2014-02-25T14:06:06.355+01:00</time>
            </trkpt>
            <trkpt lon="6.16664778" lat="49.34529334">
                <ele>159</ele>
                <time>2014-02-25T14:06:11.355+01:00</time>
            </trkpt>
            <trkpt lon="6.16518695" lat="49.34476001">
                <ele>158</ele>
                <time>2014-02-25T14:06:50.355+01:00</time>
            </trkpt>
            <trkpt lon="6.16526639" lat="49.34481917">
                <ele>158</ele>
                <time>2014-02-25T14:06:52.355+01:00</time>
            </trkpt>
            <trkpt lon="6.16459612" lat="49.34533945">
                <ele>159</ele>
                <time>2014-02-25T14:07:12.355+01:00</time>
            </trkpt>
            <trkpt lon="6.16365612" lat="49.34605445">
                <ele>159</ele>
                <time>2014-02-25T14:07:39.355+01:00</time>
            </trkpt>
            <trkpt lon="6.16242667" lat="49.34657167">
                <ele>154</ele>
                <time>2014-02-25T14:08:12.355+01:00</time>
            </trkpt>
            <trkpt lon="6.16122223" lat="49.34766000">
                <ele>157</ele>
                <time>2014-02-25T14:08:49.355+01:00</time>
            </trkpt>
            <trkpt lon="6.16135751" lat="49.34784195">
                <ele>157</ele>
                <time>2014-02-25T14:08:53.355+01:00</time>
            </trkpt>
            <trkpt lon="6.16136306" lat="49.34805973">
                <ele>156</ele>
                <time>2014-02-25T14:08:56.355+01:00</time>
            </trkpt>
            <trkpt lon="6.16134556" lat="49.34804750">
                <ele>157</ele>
                <time>2014-02-25T14:08:56.355+01:00</time>
            </trkpt>
            <trkpt lon="6.16134889" lat="49.34830723">
                <ele>156</ele>
                <time>2014-02-25T14:09:00.355+01:00</time>
            </trkpt>
            <trkpt lon="6.16140751" lat="49.34854501">
                <ele>155</ele>
                <time>2014-02-25T14:09:04.355+01:00</time>
            </trkpt>
            <trkpt lon="6.16127278" lat="49.34868334">
                <ele>156</ele>
                <time>2014-02-25T14:09:08.355+01:00</time>
            </trkpt>
            <trkpt lon="6.16134584" lat="49.34862862">
                <ele>156</ele>
                <time>2014-02-25T14:09:10.355+01:00</time>
            </trkpt>
            <trkpt lon="6.16079639" lat="49.34899806">
                <ele>160</ele>
                <time>2014-02-25T14:09:26.355+01:00</time>
            </trkpt>
            <trkpt lon="6.16045639" lat="49.35020028">
                <ele>161</ele>
                <time>2014-02-25T14:09:48.355+01:00</time>
            </trkpt>
            <trkpt lon="6.16033334" lat="49.35082973">
                <ele>163</ele>
                <time>2014-02-25T14:09:59.355+01:00</time>
            </trkpt>
            <trkpt lon="6.16122028" lat="49.35203667">
                <ele>155</ele>
                <time>2014-02-25T14:10:30.355+01:00</time>
            </trkpt>
            <trkpt lon="6.16280973" lat="49.35310751">
                <ele>146</ele>
                <time>2014-02-25T14:11:15.355+01:00</time>
            </trkpt>
            <trkpt lon="6.16403778" lat="49.35373695">
                <ele>148</ele>
                <time>2014-02-25T14:11:49.355+01:00</time>
            </trkpt>
            <trkpt lon="6.16566862" lat="49.35497917">
                <ele>151</ele>
                <time>2014-02-25T14:12:37.355+01:00</time>
            </trkpt>
            <trkpt lon="6.16703334" lat="49.35599139">
                <ele>157</ele>
                <time>2014-02-25T14:13:18.355+01:00</time>
            </trkpt>
            <trkpt lon="6.16690195" lat="49.35589889">
                <ele>159</ele>
                <time>2014-02-25T14:13:22.355+01:00</time>
            </trkpt>
            <trkpt lon="6.16851417" lat="49.35679278">
                <ele>154</ele>
                <time>2014-02-25T14:14:07.355+01:00</time>
            </trkpt>
            <trkpt lon="6.16846389" lat="49.35679862">
                <ele>154</ele>
                <time>2014-02-25T14:14:08.355+01:00</time>
            </trkpt>
            <trkpt lon="6.16913695" lat="49.35717806">
                <ele>153</ele>
                <time>2014-02-25T14:14:27.355+01:00</time>
            </trkpt>
            <trkpt lon="6.17055417" lat="49.35812334">
                <ele>156</ele>
                <time>2014-02-25T14:20:16.355+01:00</time>
            </trkpt>
            <trkpt lon="6.17434139" lat="49.36020751">
                <ele>151</ele>
                <time>2014-02-25T14:35:11.355+01:00</time>
            </trkpt>
            <trkpt lon="6.17649417" lat="49.36120556">
                <ele>151</ele>
                <time>2014-02-25T14:43:31.355+01:00</time>
            </trkpt>
            <trkpt lon="6.17649417" lat="49.36120556">
                <ele>151</ele>
                <time>2014-02-25T14:43:31.355+01:00</time>
            </trkpt>
            <trkpt lon="6.17878084" lat="49.36230473">
                <ele>153</ele>
                <time>2014-02-25T14:44:34.355+01:00</time>
            </trkpt>
            <trkpt lon="6.17965556" lat="49.36273028">
                <ele>153</ele>
                <time>2014-02-25T14:44:58.355+01:00</time>
            </trkpt>
            <trkpt lon="6.18007473" lat="49.36285806">
                <ele>153</ele>
                <time>2014-02-25T14:45:09.355+01:00</time>
            </trkpt>
            <trkpt lon="6.18219528" lat="49.36372778">
                <ele>150</ele>
                <time>2014-02-25T14:46:07.355+01:00</time>
            </trkpt>
            <trkpt lon="6.18574945" lat="49.36537695">
                <ele>148</ele>
                <time>2014-02-25T14:47:45.355+01:00</time>
            </trkpt>
            <trkpt lon="6.18643000" lat="49.36574195">
                <ele>149</ele>
                <time>2014-02-25T14:48:04.355+01:00</time>
            </trkpt>
            <trkpt lon="6.18885889" lat="49.36647251">
                <ele>149</ele>
                <time>2014-02-25T14:49:09.355+01:00</time>
            </trkpt>
            <trkpt lon="6.19021223" lat="49.36661306">
                <ele>150</ele>
                <time>2014-02-25T14:49:45.355+01:00</time>
            </trkpt>
            <trkpt lon="6.19262139" lat="49.36703139">
                <ele>150</ele>
                <time>2014-02-25T14:50:49.355+01:00</time>
            </trkpt>
            <trkpt lon="6.19504084" lat="49.36736473">
                <ele>150</ele>
                <time>2014-02-25T14:51:53.355+01:00</time>
            </trkpt>
            <trkpt lon="6.19721389" lat="49.36769806">
                <ele>150</ele>
                <time>2014-02-25T14:52:50.355+01:00</time>
            </trkpt>
            <trkpt lon="6.19897584" lat="49.36810084">
                <ele>152</ele>
                <time>2014-02-25T14:53:37.355+01:00</time>
            </trkpt>
            <trkpt lon="6.20182056" lat="49.36970417">
                <ele>148</ele>
                <time>2014-02-25T14:54:57.355+01:00</time>
            </trkpt>
            <trkpt lon="6.20417028" lat="49.37125167">
                <ele>146</ele>
                <time>2014-02-25T14:56:04.355+01:00</time>
            </trkpt>
            <trkpt lon="6.20548112" lat="49.37261056">
                <ele>144</ele>
                <time>2014-02-25T14:56:45.355+01:00</time>
            </trkpt>
            <trkpt lon="6.20625695" lat="49.37423695">
                <ele>149</ele>
                <time>2014-02-25T14:57:20.355+01:00</time>
            </trkpt>
            <trkpt lon="6.20598889" lat="49.37615251">
                <ele>157</ele>
                <time>2014-02-25T14:57:55.355+01:00</time>
            </trkpt>
            <trkpt lon="6.20497723" lat="49.37855639">
                <ele>151</ele>
                <time>2014-02-25T14:58:44.355+01:00</time>
            </trkpt>
            <trkpt lon="6.20440112" lat="49.37932084">
                <ele>150</ele>
                <time>2014-02-25T14:59:04.355+01:00</time>
            </trkpt>
            <trkpt lon="6.20372612" lat="49.37969473">
                <ele>153</ele>
                <time>2014-02-25T14:59:23.355+01:00</time>
            </trkpt>
            <trkpt lon="6.20274667" lat="49.38059723">
                <ele>151</ele>
                <time>2014-02-25T14:59:53.355+01:00</time>
            </trkpt>
            <trkpt lon="6.20253084" lat="49.38054445">
                <ele>151</ele>
                <time>2014-02-25T14:59:58.355+01:00</time>
            </trkpt>
            <trkpt lon="6.20264695" lat="49.38124889">
                <ele>155</ele>
                <time>2014-02-25T15:00:11.355+01:00</time>
            </trkpt>
            <trkpt lon="6.20210445" lat="49.38291473">
                <ele>155</ele>
                <time>2014-02-25T15:00:43.355+01:00</time>
            </trkpt>
            <trkpt lon="6.20207750" lat="49.38368250">
                <ele>144</ele>
                <time>2014-02-25T15:00:56.355+01:00</time>
            </trkpt>
            <trkpt lon="6.20247000" lat="49.38544806">
                <ele>148</ele>
                <time>2014-02-25T15:01:29.355+01:00</time>
            </trkpt>
            <trkpt lon="6.20291723" lat="49.38615917">
                <ele>143</ele>
                <time>2014-02-25T15:01:46.355+01:00</time>
            </trkpt>
            <trkpt lon="6.20291723" lat="49.38615917">
                <ele>143</ele>
                <time>2014-02-25T15:01:46.355+01:00</time>
            </trkpt>
            <trkpt lon="6.20328362" lat="49.38623695">
                <ele>143</ele>
                <time>2014-02-25T15:01:55.355+01:00</time>
            </trkpt>
            <trkpt lon="6.20399084" lat="49.38675306">
                <ele>142</ele>
                <time>2014-02-25T15:02:15.355+01:00</time>
            </trkpt>
            <trkpt lon="6.20571778" lat="49.38808556">
                <ele>141</ele>
                <time>2014-02-25T15:03:06.355+01:00</time>
            </trkpt>
            <trkpt lon="6.20756917" lat="49.38887195">
                <ele>145</ele>
                <time>2014-02-25T15:03:57.355+01:00</time>
            </trkpt>
            <trkpt lon="6.20923417" lat="49.38932000">
                <ele>145</ele>
                <time>2014-02-25T15:04:41.355+01:00</time>
            </trkpt>
            <trkpt lon="6.21072473" lat="49.38948195">
                <ele>147</ele>
                <time>2014-02-25T15:05:21.355+01:00</time>
            </trkpt>
            <trkpt lon="6.21240195" lat="49.38950223">
                <ele>148</ele>
                <time>2014-02-25T15:06:05.355+01:00</time>
            </trkpt>
            <trkpt lon="6.21408417" lat="49.38917834">
                <ele>145</ele>
                <time>2014-02-25T15:06:49.355+01:00</time>
            </trkpt>
            <trkpt lon="6.21494445" lat="49.38891473">
                <ele>144</ele>
                <time>2014-02-25T15:07:12.355+01:00</time>
            </trkpt>
            <trkpt lon="6.21802112" lat="49.38811862">
                <ele>144</ele>
                <time>2014-02-25T15:08:34.355+01:00</time>
            </trkpt>
            <trkpt lon="6.21954001" lat="49.38800639">
                <ele>145</ele>
                <time>2014-02-25T15:09:14.355+01:00</time>
            </trkpt>
            <trkpt lon="6.22194334" lat="49.38781334">
                <ele>143</ele>
                <time>2014-02-25T15:10:17.355+01:00</time>
            </trkpt>
            <trkpt lon="6.22617778" lat="49.38767723">
                <ele>145</ele>
                <time>2014-02-25T15:12:09.355+01:00</time>
            </trkpt>
            <trkpt lon="6.22985528" lat="49.38867945">
                <ele>146</ele>
                <time>2014-02-25T15:13:48.355+01:00</time>
            </trkpt>
            <trkpt lon="6.23250750" lat="49.38965723">
                <ele>143</ele>
                <time>2014-02-25T15:15:00.355+01:00</time>
            </trkpt>
            <trkpt lon="6.23323584" lat="49.39063556">
                <ele>145</ele>
                <time>2014-02-25T15:15:26.355+01:00</time>
            </trkpt>
            <trkpt lon="6.23416251" lat="49.39125723">
                <ele>144</ele>
                <time>2014-02-25T15:15:52.355+01:00</time>
            </trkpt>
            <trkpt lon="6.23531500" lat="49.39173278">
                <ele>148</ele>
                <time>2014-02-25T15:16:24.355+01:00</time>
            </trkpt>
            <trkpt lon="6.23666251" lat="49.39214667">
                <ele>145</ele>
                <time>2014-02-25T15:17:00.355+01:00</time>
            </trkpt>
            <trkpt lon="6.23852945" lat="49.39218417">
                <ele>144</ele>
                <time>2014-02-25T15:17:49.355+01:00</time>
            </trkpt>
            <trkpt lon="6.23877389" lat="49.39227223">
                <ele>145</ele>
                <time>2014-02-25T15:17:55.355+01:00</time>
            </trkpt>
            <trkpt lon="6.24041500" lat="49.39302945">
                <ele>145</ele>
                <time>2014-02-25T15:18:40.355+01:00</time>
            </trkpt>
            <trkpt lon="6.24120973" lat="49.39352028">
                <ele>144</ele>
                <time>2014-02-25T15:19:02.355+01:00</time>
            </trkpt>
            <trkpt lon="6.24214250" lat="49.39377306">
                <ele>144</ele>
                <time>2014-02-25T15:19:27.355+01:00</time>
            </trkpt>
            <trkpt lon="6.24574723" lat="49.39442612">
                <ele>143</ele>
                <time>2014-02-25T15:21:03.355+01:00</time>
            </trkpt>
            <trkpt lon="6.24862473" lat="49.39496139">
                <ele>143</ele>
                <time>2014-02-25T15:22:19.355+01:00</time>
            </trkpt>
            <trkpt lon="6.25064667" lat="49.39506639">
                <ele>142</ele>
                <time>2014-02-25T15:23:12.355+01:00</time>
            </trkpt>
            <trkpt lon="6.25064667" lat="49.39506639">
                <ele>142</ele>
                <time>2014-02-25T15:23:12.355+01:00</time>
            </trkpt>
            <trkpt lon="6.25163917" lat="49.39521056">
                <ele>142</ele>
                <time>2014-02-25T15:23:38.355+01:00</time>
            </trkpt>
            <trkpt lon="6.25163917" lat="49.39521056">
                <ele>142</ele>
                <time>2014-02-25T15:23:38.355+01:00</time>
            </trkpt>
            <trkpt lon="6.25311723" lat="49.39562362">
                <ele>143</ele>
                <time>2014-02-25T15:24:18.355+01:00</time>
            </trkpt>
            <trkpt lon="6.25308834" lat="49.39564112">
                <ele>143</ele>
                <time>2014-02-25T15:24:18.355+01:00</time>
            </trkpt>
            <trkpt lon="6.25343028" lat="49.39572223">
                <ele>143</ele>
                <time>2014-02-25T15:24:27.355+01:00</time>
            </trkpt>
            <trkpt lon="6.25451528" lat="49.39632973">
                <ele>147</ele>
                <time>2014-02-25T15:24:58.355+01:00</time>
            </trkpt>
            <trkpt lon="6.25551750" lat="49.39719362">
                <ele>150</ele>
                <time>2014-02-25T15:25:29.355+01:00</time>
            </trkpt>
            <trkpt lon="6.25663334" lat="49.39883417">
                <ele>142</ele>
                <time>2014-02-25T15:26:09.355+01:00</time>
            </trkpt>
            <trkpt lon="6.25656612" lat="49.39989473">
                <ele>139</ele>
                <time>2014-02-25T15:26:27.355+01:00</time>
            </trkpt>
            <trkpt lon="6.25640473" lat="49.40072528">
                <ele>139</ele>
                <time>2014-02-25T15:26:41.355+01:00</time>
            </trkpt>
            <trkpt lon="6.25664695" lat="49.40074445">
                <ele>138</ele>
                <time>2014-02-25T15:26:47.355+01:00</time>
            </trkpt>
            <trkpt lon="6.25664695" lat="49.40074445">
                <ele>138</ele>
                <time>2014-02-25T15:26:47.355+01:00</time>
            </trkpt>
            <trkpt lon="6.25866389" lat="49.40095834">
                <ele>137</ele>
                <time>2014-02-25T15:34:17.355+01:00</time>
            </trkpt>
            <trkpt lon="6.25866389" lat="49.40095834">
                <ele>137</ele>
                <time>2014-02-25T15:34:17.355+01:00</time>
            </trkpt>
            <trkpt lon="6.25951167" lat="49.40105028">
                <ele>140</ele>
                <time>2014-02-25T15:34:40.355+01:00</time>
            </trkpt>
            <trkpt lon="6.25937334" lat="49.40021945">
                <ele>142</ele>
                <time>2014-02-25T15:34:55.355+01:00</time>
            </trkpt>
            <trkpt lon="6.25904334" lat="49.39974639">
                <ele>142</ele>
                <time>2014-02-25T15:35:06.355+01:00</time>
            </trkpt>
            <trkpt lon="6.25880362" lat="49.39864223">
                <ele>144</ele>
                <time>2014-02-25T15:35:26.355+01:00</time>
            </trkpt>
            <trkpt lon="6.25852250" lat="49.39790278">
                <ele>146</ele>
                <time>2014-02-25T15:35:41.355+01:00</time>
            </trkpt>
            <trkpt lon="6.25830389" lat="49.39731223">
                <ele>147</ele>
                <time>2014-02-25T15:35:52.355+01:00</time>
            </trkpt>
            <trkpt lon="6.25846501" lat="49.39716528">
                <ele>147</ele>
                <time>2014-02-25T15:35:56.355+01:00</time>
            </trkpt>
            <trkpt lon="6.26102306" lat="49.39791028">
                <ele>144</ele>
                <time>2014-02-25T15:37:04.355+01:00</time>
            </trkpt>
            <trkpt lon="6.26347250" lat="49.39859945">
                <ele>143</ele>
                <time>2014-02-25T15:38:09.355+01:00</time>
            </trkpt>
            <trkpt lon="6.26405112" lat="49.39880973">
                <ele>144</ele>
                <time>2014-02-25T15:38:24.355+01:00</time>
            </trkpt>
            <trkpt lon="6.26390139" lat="49.39883889">
                <ele>144</ele>
                <time>2014-02-25T15:38:27.355+01:00</time>
            </trkpt>
            <trkpt lon="6.26665139" lat="49.39962000">
                <ele>144</ele>
                <time>2014-02-25T15:39:41.355+01:00</time>
            </trkpt>
            <trkpt lon="6.26756389" lat="49.39861028">
                <ele>142</ele>
                <time>2014-02-25T15:40:10.355+01:00</time>
            </trkpt>
            <trkpt lon="6.26760195" lat="49.39858195">
                <ele>142</ele>
                <time>2014-02-25T15:40:11.355+01:00</time>
            </trkpt>
            <trkpt lon="6.27053306" lat="49.39964500">
                <ele>138</ele>
                <time>2014-02-25T15:41:30.355+01:00</time>
            </trkpt>
            <trkpt lon="6.27444501" lat="49.40072139">
                <ele>138</ele>
                <time>2014-02-25T15:43:15.355+01:00</time>
            </trkpt>
            <trkpt lon="6.27486778" lat="49.40041362">
                <ele>137</ele>
                <time>2014-02-25T15:43:27.355+01:00</time>
            </trkpt>
            <trkpt lon="6.27546612" lat="49.40065501">
                <ele>138</ele>
                <time>2014-02-25T15:43:43.355+01:00</time>
            </trkpt>
            <trkpt lon="6.27561306" lat="49.40083639">
                <ele>138</ele>
                <time>2014-02-25T15:43:47.355+01:00</time>
            </trkpt>
            <trkpt lon="6.27608528" lat="49.40096806">
                <ele>139</ele>
                <time>2014-02-25T15:43:59.355+01:00</time>
            </trkpt>
            <trkpt lon="6.27719417" lat="49.40134723">
                <ele>140</ele>
                <time>2014-02-25T15:44:29.355+01:00</time>
            </trkpt>
            <trkpt lon="6.27861945" lat="49.40176084">
                <ele>141</ele>
                <time>2014-02-25T15:45:07.355+01:00</time>
            </trkpt>
            <trkpt lon="6.28142723" lat="49.40292917">
                <ele>143</ele>
                <time>2014-02-25T15:46:24.355+01:00</time>
            </trkpt>
            <trkpt lon="6.28312001" lat="49.40422667">
                <ele>143</ele>
                <time>2014-02-25T15:47:14.355+01:00</time>
            </trkpt>
            <trkpt lon="6.28450917" lat="49.40549723">
                <ele>142</ele>
                <time>2014-02-25T15:47:56.355+01:00</time>
            </trkpt>
            <trkpt lon="6.28509028" lat="49.40677973">
                <ele>140</ele>
                <time>2014-02-25T15:48:22.355+01:00</time>
            </trkpt>
            <trkpt lon="6.28496889" lat="49.40827723">
                <ele>140</ele>
                <time>2014-02-25T15:48:48.355+01:00</time>
            </trkpt>
            <trkpt lon="6.28330389" lat="49.41146806">
                <ele>138</ele>
                <time>2014-02-25T15:49:58.355+01:00</time>
            </trkpt>
            <trkpt lon="6.28250473" lat="49.41325945">
                <ele>143</ele>
                <time>2014-02-25T15:50:36.355+01:00</time>
            </trkpt>
            <trkpt lon="6.28240306" lat="49.41418001">
                <ele>152</ele>
                <time>2014-02-25T15:50:54.355+01:00</time>
            </trkpt>
            <trkpt lon="6.28266750" lat="49.41515278">
                <ele>140</ele>
                <time>2014-02-25T15:51:12.355+01:00</time>
            </trkpt>
            <trkpt lon="6.28367778" lat="49.41622306">
                <ele>136</ele>
                <time>2014-02-25T15:51:44.355+01:00</time>
            </trkpt>
            <trkpt lon="6.28471973" lat="49.41692306">
                <ele>137</ele>
                <time>2014-02-25T15:52:14.355+01:00</time>
            </trkpt>
            <trkpt lon="6.28673862" lat="49.41765445">
                <ele>138</ele>
                <time>2014-02-25T15:53:09.355+01:00</time>
            </trkpt>
            <trkpt lon="6.28829278" lat="49.41810389">
                <ele>138</ele>
                <time>2014-02-25T15:53:50.355+01:00</time>
            </trkpt>
            <trkpt lon="6.29081167" lat="49.41835223">
                <ele>137</ele>
                <time>2014-02-25T15:54:56.355+01:00</time>
            </trkpt>
            <trkpt lon="6.29081167" lat="49.41835223">
                <ele>137</ele>
                <time>2014-02-25T15:54:56.355+01:00</time>
            </trkpt>
            <trkpt lon="6.29157084" lat="49.41853028">
                <ele>139</ele>
                <time>2014-02-25T15:55:16.355+01:00</time>
            </trkpt>
            <trkpt lon="6.29302084" lat="49.41921528">
                <ele>142</ele>
                <time>2014-02-25T15:55:56.355+01:00</time>
            </trkpt>
            <trkpt lon="6.29334695" lat="49.41960084">
                <ele>142</ele>
                <time>2014-02-25T15:56:06.355+01:00</time>
            </trkpt>
            <trkpt lon="6.29406195" lat="49.42103056">
                <ele>142</ele>
                <time>2014-02-25T15:56:37.355+01:00</time>
            </trkpt>
            <trkpt lon="6.29446445" lat="49.42199334">
                <ele>148</ele>
                <time>2014-02-25T15:56:58.355+01:00</time>
            </trkpt>
            <trkpt lon="6.29441362" lat="49.42193473">
                <ele>146</ele>
                <time>2014-02-25T15:56:59.355+01:00</time>
            </trkpt>
            <trkpt lon="6.29473445" lat="49.42247334">
                <ele>149</ele>
                <time>2014-02-25T15:57:12.355+01:00</time>
            </trkpt>
            <trkpt lon="6.29475112" lat="49.42244084">
                <ele>149</ele>
                <time>2014-02-25T15:57:12.355+01:00</time>
            </trkpt>
            <trkpt lon="6.29530750" lat="49.42397473">
                <ele>150</ele>
                <time>2014-02-25T15:57:42.355+01:00</time>
            </trkpt>
            <trkpt lon="6.29592028" lat="49.42483612">
                <ele>148</ele>
                <time>2014-02-25T15:58:04.355+01:00</time>
            </trkpt>
            <trkpt lon="6.29624806" lat="49.42509639">
                <ele>147</ele>
                <time>2014-02-25T15:58:13.355+01:00</time>
            </trkpt>
            <trkpt lon="6.29702056" lat="49.42557639">
                <ele>147</ele>
                <time>2014-02-25T15:58:35.355+01:00</time>
            </trkpt>
            <trkpt lon="6.29702056" lat="49.42557639">
                <ele>147</ele>
                <time>2014-02-25T15:58:35.355+01:00</time>
            </trkpt>
            <trkpt lon="6.29740306" lat="49.42558528">
                <ele>146</ele>
                <time>2014-02-25T15:58:45.355+01:00</time>
            </trkpt>
            <trkpt lon="6.29889612" lat="49.42509695">
                <ele>145</ele>
                <time>2014-02-25T15:59:25.355+01:00</time>
            </trkpt>
            <trkpt lon="6.29811195" lat="49.42403167">
                <ele>153</ele>
                <time>2014-02-25T15:59:54.355+01:00</time>
            </trkpt>
            <trkpt lon="6.29811195" lat="49.42403167">
                <ele>153</ele>
                <time>2014-02-25T15:59:54.355+01:00</time>
            </trkpt>
            <trkpt lon="6.29713806" lat="49.42293223">
                <ele>154</ele>
                <time>2014-02-25T16:00:26.355+01:00</time>
            </trkpt>
            <trkpt lon="6.29642362" lat="49.42224862">
                <ele>154</ele>
                <time>2014-02-25T16:00:48.355+01:00</time>
            </trkpt>
            <trkpt lon="6.29527862" lat="49.42218500">
                <ele>151</ele>
                <time>2014-02-25T16:01:18.355+01:00</time>
            </trkpt>
            <trkpt lon="6.29290251" lat="49.42243112">
                <ele>140</ele>
                <time>2014-02-25T16:02:21.355+01:00</time>
            </trkpt>
            <trkpt lon="6.29199139" lat="49.42262445">
                <ele>141</ele>
                <time>2014-02-25T16:02:45.355+01:00</time>
            </trkpt>
            <trkpt lon="6.29166695" lat="49.42284945">
                <ele>140</ele>
                <time>2014-02-25T16:02:54.355+01:00</time>
            </trkpt>
            <trkpt lon="6.29141834" lat="49.42326723">
                <ele>138</ele>
                <time>2014-02-25T16:03:03.355+01:00</time>
            </trkpt>
            <trkpt lon="6.29180473" lat="49.42386973">
                <ele>138</ele>
                <time>2014-02-25T16:03:17.355+01:00</time>
            </trkpt>
            <trkpt lon="6.29248362" lat="49.42456195">
                <ele>141</ele>
                <time>2014-02-25T16:03:39.355+01:00</time>
            </trkpt>
            <trkpt lon="6.29244362" lat="49.42516751">
                <ele>141</ele>
                <time>2014-02-25T16:03:49.355+01:00</time>
            </trkpt>
            <trkpt lon="6.29288917" lat="49.42483528">
                <ele>141</ele>
                <time>2014-02-25T16:04:02.355+01:00</time>
            </trkpt>
            <trkpt lon="6.29323501" lat="49.42451084">
                <ele>138</ele>
                <time>2014-02-25T16:04:12.355+01:00</time>
            </trkpt>
            <trkpt lon="6.29358889" lat="49.42471667">
                <ele>138</ele>
                <time>2014-02-25T16:04:22.355+01:00</time>
            </trkpt>
            <trkpt lon="6.29349556" lat="49.42472306">
                <ele>137</ele>
                <time>2014-02-25T16:04:24.355+01:00</time>
            </trkpt>
            <trkpt lon="6.29360139" lat="49.42559667">
                <ele>138</ele>
                <time>2014-02-25T16:04:39.355+01:00</time>
            </trkpt>
            <trkpt lon="6.29388167" lat="49.42633139">
                <ele>138</ele>
                <time>2014-02-25T16:04:53.355+01:00</time>
            </trkpt>
            <trkpt lon="6.29484917" lat="49.42709751">
                <ele>142</ele>
                <time>2014-02-25T16:05:22.355+01:00</time>
            </trkpt>
            <trkpt lon="6.29658028" lat="49.42831306">
                <ele>141</ele>
                <time>2014-02-25T16:06:12.355+01:00</time>
            </trkpt>
            <trkpt lon="6.29735612" lat="49.42876500">
                <ele>140</ele>
                <time>2014-02-25T16:06:33.355+01:00</time>
            </trkpt>
            <trkpt lon="6.29956056" lat="49.43003945">
                <ele>139</ele>
                <time>2014-02-25T16:07:35.355+01:00</time>
            </trkpt>
            <trkpt lon="6.30022751" lat="49.43027501">
                <ele>139</ele>
                <time>2014-02-25T16:07:53.355+01:00</time>
            </trkpt>
            <trkpt lon="6.30175112" lat="49.43073028">
                <ele>139</ele>
                <time>2014-02-25T16:08:34.355+01:00</time>
            </trkpt>
            <trkpt lon="6.30474445" lat="49.43141056">
                <ele>142</ele>
                <time>2014-02-25T16:09:54.355+01:00</time>
            </trkpt>
            <trkpt lon="6.30598445" lat="49.43155584">
                <ele>141</ele>
                <time>2014-02-25T16:10:26.355+01:00</time>
            </trkpt>
            <trkpt lon="6.30688112" lat="49.43146028">
                <ele>142</ele>
                <time>2014-02-25T16:10:50.355+01:00</time>
            </trkpt>
            <trkpt lon="6.30815917" lat="49.43090889">
                <ele>143</ele>
                <time>2014-02-25T16:11:25.355+01:00</time>
            </trkpt>
            <trkpt lon="6.30881528" lat="49.43010667">
                <ele>144</ele>
                <time>2014-02-25T16:11:47.355+01:00</time>
            </trkpt>
            <trkpt lon="6.30907223" lat="49.42859084">
                <ele>148</ele>
                <time>2014-02-25T16:12:14.355+01:00</time>
            </trkpt>
            <trkpt lon="6.30914778" lat="49.42691056">
                <ele>144</ele>
                <time>2014-02-25T16:12:43.355+01:00</time>
            </trkpt>
            <trkpt lon="6.30922250" lat="49.42601000">
                <ele>141</ele>
                <time>2014-02-25T16:12:58.355+01:00</time>
            </trkpt>
            <trkpt lon="6.30985167" lat="49.42523667">
                <ele>140</ele>
                <time>2014-02-25T16:13:19.355+01:00</time>
            </trkpt>
            <trkpt lon="6.30985167" lat="49.42523667">
                <ele>140</ele>
                <time>2014-02-25T16:13:19.355+01:00</time>
            </trkpt>
            <trkpt lon="6.31027250" lat="49.42465028">
                <ele>138</ele>
                <time>2014-02-25T16:13:34.355+01:00</time>
            </trkpt>
            <trkpt lon="6.31083056" lat="49.42425667">
                <ele>137</ele>
                <time>2014-02-25T16:13:50.355+01:00</time>
            </trkpt>
            <trkpt lon="6.31164223" lat="49.42403695">
                <ele>137</ele>
                <time>2014-02-25T16:14:11.355+01:00</time>
            </trkpt>
            <trkpt lon="6.31306862" lat="49.42375278">
                <ele>141</ele>
                <time>2014-02-25T16:14:50.355+01:00</time>
            </trkpt>
            <trkpt lon="6.31438334" lat="49.42318195">
                <ele>140</ele>
                <time>2014-02-25T16:15:26.355+01:00</time>
            </trkpt>
            <trkpt lon="6.31539362" lat="49.42306473">
                <ele>140</ele>
                <time>2014-02-25T16:15:52.355+01:00</time>
            </trkpt>
            <trkpt lon="6.31708417" lat="49.42325639">
                <ele>140</ele>
                <time>2014-02-25T16:16:36.355+01:00</time>
            </trkpt>
            <trkpt lon="6.31794389" lat="49.42352028">
                <ele>140</ele>
                <time>2014-02-25T16:16:59.355+01:00</time>
            </trkpt>
            <trkpt lon="6.31907278" lat="49.42406973">
                <ele>142</ele>
                <time>2014-02-25T16:17:30.355+01:00</time>
            </trkpt>
            <trkpt lon="6.31945612" lat="49.42432306">
                <ele>143</ele>
                <time>2014-02-25T16:17:41.355+01:00</time>
            </trkpt>
            <trkpt lon="6.31967362" lat="49.42449056">
                <ele>145</ele>
                <time>2014-02-25T16:17:47.355+01:00</time>
            </trkpt>
            <trkpt lon="6.32022389" lat="49.42502417">
                <ele>144</ele>
                <time>2014-02-25T16:18:04.355+01:00</time>
            </trkpt>
            <trkpt lon="6.32077556" lat="49.42606167">
                <ele>141</ele>
                <time>2014-02-25T16:18:27.355+01:00</time>
            </trkpt>
            <trkpt lon="6.32086195" lat="49.42691251">
                <ele>141</ele>
                <time>2014-02-25T16:18:41.355+01:00</time>
            </trkpt>
            <trkpt lon="6.32068862" lat="49.42875806">
                <ele>140</ele>
                <time>2014-02-25T16:19:13.355+01:00</time>
            </trkpt>
            <trkpt lon="6.32025223" lat="49.43157306">
                <ele>143</ele>
                <time>2014-02-25T16:20:03.355+01:00</time>
            </trkpt>
            <trkpt lon="6.31976056" lat="49.43404750">
                <ele>150</ele>
                <time>2014-02-25T16:20:49.355+01:00</time>
            </trkpt>
            <trkpt lon="6.31939501" lat="49.43508501">
                <ele>149</ele>
                <time>2014-02-25T16:21:09.355+01:00</time>
            </trkpt>
            <trkpt lon="6.31895889" lat="49.43606389">
                <ele>148</ele>
                <time>2014-02-25T16:21:29.355+01:00</time>
            </trkpt>
            <trkpt lon="6.31882112" lat="49.43690612">
                <ele>150</ele>
                <time>2014-02-25T16:21:44.355+01:00</time>
            </trkpt>
            <trkpt lon="6.31906889" lat="49.43801751">
                <ele>151</ele>
                <time>2014-02-25T16:22:04.355+01:00</time>
            </trkpt>
            <trkpt lon="6.32054223" lat="49.44044778">
                <ele>146</ele>
                <time>2014-02-25T16:23:01.355+01:00</time>
            </trkpt>
            <trkpt lon="6.32101001" lat="49.44115223">
                <ele>145</ele>
                <time>2014-02-25T16:23:18.355+01:00</time>
            </trkpt>
            <trkpt lon="6.32125667" lat="49.44218139">
                <ele>146</ele>
                <time>2014-02-25T16:23:37.355+01:00</time>
            </trkpt>
            <trkpt lon="6.32174389" lat="49.44266945">
                <ele>144</ele>
                <time>2014-02-25T16:23:52.355+01:00</time>
            </trkpt>
            <trkpt lon="6.32343584" lat="49.44387028">
                <ele>138</ele>
                <time>2014-02-25T16:24:41.355+01:00</time>
            </trkpt>
            <trkpt lon="6.32420639" lat="49.44450389">
                <ele>139</ele>
                <time>2014-02-25T16:25:04.355+01:00</time>
            </trkpt>
            <trkpt lon="6.32507556" lat="49.44556112">
                <ele>138</ele>
                <time>2014-02-25T16:25:33.355+01:00</time>
            </trkpt>
            <trkpt lon="6.32583473" lat="49.44669806">
                <ele>138</ele>
                <time>2014-02-25T16:26:01.355+01:00</time>
            </trkpt>
            <trkpt lon="6.32633973" lat="49.44793639">
                <ele>137</ele>
                <time>2014-02-25T16:26:26.355+01:00</time>
            </trkpt>
            <trkpt lon="6.32635167" lat="49.44863945">
                <ele>137</ele>
                <time>2014-02-25T16:26:38.355+01:00</time>
            </trkpt>
            <trkpt lon="6.32694112" lat="49.44922612">
                <ele>138</ele>
                <time>2014-02-25T16:26:56.355+01:00</time>
            </trkpt>
            <trkpt lon="6.32694112" lat="49.44922612">
                <ele>138</ele>
                <time>2014-02-25T16:26:56.355+01:00</time>
            </trkpt>
            <trkpt lon="6.32643306" lat="49.45010723">
                <ele>138</ele>
                <time>2014-02-25T16:27:16.355+01:00</time>
            </trkpt>
            <trkpt lon="6.32640306" lat="49.45014584">
                <ele>138</ele>
                <time>2014-02-25T16:27:17.355+01:00</time>
            </trkpt>
            <trkpt lon="6.32699501" lat="49.45044751">
                <ele>139</ele>
                <time>2014-02-25T16:27:33.355+01:00</time>
            </trkpt>
            <trkpt lon="6.32856084" lat="49.45107778">
                <ele>138</ele>
                <time>2014-02-25T16:28:15.355+01:00</time>
            </trkpt>
            <trkpt lon="6.32962834" lat="49.45147084">
                <ele>136</ele>
                <time>2014-02-25T16:28:44.355+01:00</time>
            </trkpt>
            <trkpt lon="6.33148639" lat="49.45227362">
                <ele>136</ele>
                <time>2014-02-25T16:29:35.355+01:00</time>
            </trkpt>
            <trkpt lon="6.33364000" lat="49.45270417">
                <ele>138</ele>
                <time>2014-02-25T16:30:33.355+01:00</time>
            </trkpt>
            <trkpt lon="6.33650584" lat="49.45313584">
                <ele>138</ele>
                <time>2014-02-25T16:31:49.355+01:00</time>
            </trkpt>
            <trkpt lon="6.33791139" lat="49.45328056">
                <ele>138</ele>
                <time>2014-02-25T16:32:26.355+01:00</time>
            </trkpt>
            <trkpt lon="6.33797639" lat="49.45322362">
                <ele>138</ele>
                <time>2014-02-25T16:32:27.355+01:00</time>
            </trkpt>
            <trkpt lon="6.33947362" lat="49.45326584">
                <ele>137</ele>
                <time>2014-02-25T16:33:06.355+01:00</time>
            </trkpt>
            <trkpt lon="6.34034278" lat="49.45329223">
                <ele>138</ele>
                <time>2014-02-25T16:33:29.355+01:00</time>
            </trkpt>
            <trkpt lon="6.34067306" lat="49.45328389">
                <ele>138</ele>
                <time>2014-02-25T16:33:37.355+01:00</time>
            </trkpt>
            <trkpt lon="6.34134223" lat="49.45310639">
                <ele>138</ele>
                <time>2014-02-25T16:33:54.355+01:00</time>
            </trkpt>
            <trkpt lon="6.34297278" lat="49.45270362">
                <ele>138</ele>
                <time>2014-02-25T16:34:37.355+01:00</time>
            </trkpt>
            <trkpt lon="6.34427639" lat="49.45228306">
                <ele>138</ele>
                <time>2014-02-25T16:35:12.355+01:00</time>
            </trkpt>
            <trkpt lon="6.34579445" lat="49.45131501">
                <ele>139</ele>
                <time>2014-02-25T16:35:55.355+01:00</time>
            </trkpt>
            <trkpt lon="6.34745056" lat="49.44955084">
                <ele>140</ele>
                <time>2014-02-25T16:36:48.355+01:00</time>
            </trkpt>
            <trkpt lon="6.34753000" lat="49.44935195">
                <ele>139</ele>
                <time>2014-02-25T16:36:52.355+01:00</time>
            </trkpt>
            <trkpt lon="6.34775639" lat="49.44915139">
                <ele>139</ele>
                <time>2014-02-25T16:36:58.355+01:00</time>
            </trkpt>
            <trkpt lon="6.34775389" lat="49.44913334">
                <ele>139</ele>
                <time>2014-02-25T16:36:58.355+01:00</time>
            </trkpt>
            <trkpt lon="6.34813750" lat="49.44877334">
                <ele>139</ele>
                <time>2014-02-25T16:37:09.355+01:00</time>
            </trkpt>
            <trkpt lon="6.34839778" lat="49.44863278">
                <ele>139</ele>
                <time>2014-02-25T16:37:16.355+01:00</time>
            </trkpt>
            <trkpt lon="6.34858445" lat="49.44871973">
                <ele>140</ele>
                <time>2014-02-25T16:37:21.355+01:00</time>
            </trkpt>
            <trkpt lon="6.34867639" lat="49.44878695">
                <ele>142</ele>
                <time>2014-02-25T16:37:24.355+01:00</time>
            </trkpt>
            <trkpt lon="6.34852612" lat="49.44895084">
                <ele>143</ele>
                <time>2014-02-25T16:37:29.355+01:00</time>
            </trkpt>
            <trkpt lon="6.34817334" lat="49.44939778">
                <ele>143</ele>
                <time>2014-02-25T16:37:41.355+01:00</time>
            </trkpt>
            <trkpt lon="6.34624000" lat="49.44868667">
                <ele>147</ele>
                <time>2014-02-25T16:38:34.355+01:00</time>
            </trkpt>
            <trkpt lon="6.34536167" lat="49.44831889">
                <ele>147</ele>
                <time>2014-02-25T16:38:58.355+01:00</time>
            </trkpt>
            <trkpt lon="6.34564028" lat="49.44827862">
                <ele>148</ele>
                <time>2014-02-25T16:39:05.355+01:00</time>
            </trkpt>
            <trkpt lon="6.34628695" lat="49.44778306">
                <ele>149</ele>
                <time>2014-02-25T16:39:24.355+01:00</time>
            </trkpt>
            <trkpt lon="6.34649945" lat="49.44717445">
                <ele>145</ele>
                <time>2014-02-25T16:39:35.355+01:00</time>
            </trkpt>
            <trkpt lon="6.34601112" lat="49.44678278">
                <ele>146</ele>
                <time>2014-02-25T16:39:49.355+01:00</time>
            </trkpt>
            <trkpt lon="6.34615084" lat="49.44672501">
                <ele>145</ele>
                <time>2014-02-25T16:39:52.355+01:00</time>
            </trkpt>
            <trkpt lon="6.34932195" lat="49.44497250">
                <ele>144</ele>
                <time>2014-02-25T16:41:21.355+01:00</time>
            </trkpt>
            <trkpt lon="6.35101473" lat="49.44413834">
                <ele>141</ele>
                <time>2014-02-25T16:42:08.355+01:00</time>
            </trkpt>
            <trkpt lon="6.35185389" lat="49.44343528">
                <ele>142</ele>
                <time>2014-02-25T16:42:33.355+01:00</time>
            </trkpt>
            <trkpt lon="6.35312917" lat="49.44267889">
                <ele>140</ele>
                <time>2014-02-25T16:43:09.355+01:00</time>
            </trkpt>
            <trkpt lon="6.35440778" lat="49.44215334">
                <ele>140</ele>
                <time>2014-02-25T16:43:44.355+01:00</time>
            </trkpt>
            <trkpt lon="6.35552556" lat="49.44197167">
                <ele>141</ele>
                <time>2014-02-25T16:44:14.355+01:00</time>
            </trkpt>
            <trkpt lon="6.35633806" lat="49.44197945">
                <ele>141</ele>
                <time>2014-02-25T16:44:35.355+01:00</time>
            </trkpt>
            <trkpt lon="6.35719834" lat="49.44203139">
                <ele>143</ele>
                <time>2014-02-25T16:44:58.355+01:00</time>
            </trkpt>
            <trkpt lon="6.35762528" lat="49.44211695">
                <ele>144</ele>
                <time>2014-02-25T16:45:09.355+01:00</time>
            </trkpt>
            <trkpt lon="6.35790278" lat="49.44219917">
                <ele>144</ele>
                <time>2014-02-25T16:45:16.355+01:00</time>
            </trkpt>
            <trkpt lon="6.35783778" lat="49.44214389">
                <ele>145</ele>
                <time>2014-02-25T16:45:18.355+01:00</time>
            </trkpt>
            <trkpt lon="6.35909084" lat="49.44260639">
                <ele>142</ele>
                <time>2014-02-25T16:45:52.355+01:00</time>
            </trkpt>
            <trkpt lon="6.35968723" lat="49.44285389">
                <ele>143</ele>
                <time>2014-02-25T16:46:08.355+01:00</time>
            </trkpt>
            <trkpt lon="6.36088639" lat="49.44365000">
                <ele>143</ele>
                <time>2014-02-25T16:46:42.355+01:00</time>
            </trkpt>
            <trkpt lon="6.36172500" lat="49.44433139">
                <ele>142</ele>
                <time>2014-02-25T16:47:07.355+01:00</time>
            </trkpt>
            <trkpt lon="6.36172500" lat="49.44434973">
                <ele>142</ele>
                <time>2014-02-25T16:47:07.355+01:00</time>
            </trkpt>
            <trkpt lon="6.36213806" lat="49.44410556">
                <ele>144</ele>
                <time>2014-02-25T16:47:19.355+01:00</time>
            </trkpt>
            <trkpt lon="6.36229945" lat="49.44422167">
                <ele>143</ele>
                <time>2014-02-25T16:47:23.355+01:00</time>
            </trkpt>
            <trkpt lon="6.36408695" lat="49.44566778">
                <ele>144</ele>
                <time>2014-02-25T16:48:16.355+01:00</time>
            </trkpt>
            <trkpt lon="6.36489862" lat="49.44628750">
                <ele>145</ele>
                <time>2014-02-25T16:48:40.355+01:00</time>
            </trkpt>
            <trkpt lon="6.36578639" lat="49.44688112">
                <ele>140</ele>
                <time>2014-02-25T16:49:05.355+01:00</time>
            </trkpt>
            <trkpt lon="6.36572139" lat="49.44683751">
                <ele>141</ele>
                <time>2014-02-25T16:49:07.355+01:00</time>
            </trkpt>
            <trkpt lon="6.36884056" lat="49.44867056">
                <ele>142</ele>
                <time>2014-02-25T16:50:35.355+01:00</time>
            </trkpt>
            <trkpt lon="6.37096834" lat="49.45015806">
                <ele>147</ele>
                <time>2014-02-25T16:51:38.355+01:00</time>
            </trkpt>
            <trkpt lon="6.37132778" lat="49.45052695">
                <ele>149</ele>
                <time>2014-02-25T16:51:49.355+01:00</time>
            </trkpt>
            <trkpt lon="6.37162362" lat="49.45094139">
                <ele>153</ele>
                <time>2014-02-25T16:52:00.355+01:00</time>
            </trkpt>
            <trkpt lon="6.37249278" lat="49.45227306">
                <ele>158</ele>
                <time>2014-02-25T16:52:33.355+01:00</time>
            </trkpt>
            <trkpt lon="6.37302001" lat="49.45348806">
                <ele>147</ele>
                <time>2014-02-25T16:52:58.355+01:00</time>
            </trkpt>
            <trkpt lon="6.37355306" lat="49.45508889">
                <ele>157</ele>
                <time>2014-02-25T16:53:31.355+01:00</time>
            </trkpt>
            <trkpt lon="6.37347001" lat="49.45643945">
                <ele>153</ele>
                <time>2014-02-25T16:53:54.355+01:00</time>
            </trkpt>
            <trkpt lon="6.37324167" lat="49.45701500">
                <ele>148</ele>
                <time>2014-02-25T16:54:05.355+01:00</time>
            </trkpt>
            <trkpt lon="6.37283528" lat="49.45757778">
                <ele>143</ele>
                <time>2014-02-25T16:54:19.355+01:00</time>
            </trkpt>
            <trkpt lon="6.37264028" lat="49.45852417">
                <ele>147</ele>
                <time>2014-02-25T16:54:37.355+01:00</time>
            </trkpt>
            <trkpt lon="6.37255778" lat="49.45851000">
                <ele>147</ele>
                <time>2014-02-25T16:54:39.355+01:00</time>
            </trkpt>
            <trkpt lon="6.37260251" lat="49.45881251">
                <ele>148</ele>
                <time>2014-02-25T16:54:44.355+01:00</time>
            </trkpt>
            <trkpt lon="6.37246667" lat="49.45918917">
                <ele>148</ele>
                <time>2014-02-25T16:54:51.355+01:00</time>
            </trkpt>
            <trkpt lon="6.37239528" lat="49.45945834">
                <ele>148</ele>
                <time>2014-02-25T16:54:56.355+01:00</time>
            </trkpt>
            <trkpt lon="6.37253806" lat="49.45992917">
                <ele>148</ele>
                <time>2014-02-25T16:55:04.355+01:00</time>
            </trkpt>
            <trkpt lon="6.37255612" lat="49.46047667">
                <ele>148</ele>
                <time>2014-02-25T16:55:13.355+01:00</time>
            </trkpt>
            <trkpt lon="6.37251750" lat="49.46048612">
                <ele>148</ele>
                <time>2014-02-25T16:55:14.355+01:00</time>
            </trkpt>
            <trkpt lon="6.37198139" lat="49.46131750">
                <ele>149</ele>
                <time>2014-02-25T16:55:34.355+01:00</time>
            </trkpt>
            <trkpt lon="6.37122389" lat="49.46306112">
                <ele>157</ele>
                <time>2014-02-25T16:56:12.355+01:00</time>
            </trkpt>
            <trkpt lon="6.37038862" lat="49.46538639">
                <ele>157</ele>
                <time>2014-02-25T16:56:57.355+01:00</time>
            </trkpt>
            <trkpt lon="6.37038445" lat="49.46612667">
                <ele>148</ele>
                <time>2014-02-25T16:57:09.355+01:00</time>
            </trkpt>
            <trkpt lon="6.37063973" lat="49.46698223">
                <ele>146</ele>
                <time>2014-02-25T16:57:25.355+01:00</time>
            </trkpt>
            <trkpt lon="6.37114112" lat="49.46728723">
                <ele>149</ele>
                <time>2014-02-25T16:57:40.355+01:00</time>
            </trkpt>
            <trkpt lon="6.37119806" lat="49.46747667">
                <ele>149</ele>
                <time>2014-02-25T16:57:43.355+01:00</time>
            </trkpt>
            <trkpt lon="6.37121806" lat="49.46698389">
                <ele>152</ele>
                <time>2014-02-25T16:57:52.355+01:00</time>
            </trkpt>
            <trkpt lon="6.37134001" lat="49.46675639">
                <ele>154</ele>
                <time>2014-02-25T16:57:57.355+01:00</time>
            </trkpt>
            <trkpt lon="6.37174167" lat="49.46668139">
                <ele>159</ele>
                <time>2014-02-25T16:58:08.355+01:00</time>
            </trkpt>
            <trkpt lon="6.37196973" lat="49.46668639">
                <ele>160</ele>
                <time>2014-02-25T16:58:14.355+01:00</time>
            </trkpt>
            <trkpt lon="6.37202334" lat="49.46720473">
                <ele>158</ele>
                <time>2014-02-25T16:58:23.355+01:00</time>
            </trkpt>
            <trkpt lon="6.37203334" lat="49.46813945">
                <ele>152</ele>
                <time>2014-02-25T16:58:39.355+01:00</time>
            </trkpt>
            <trkpt lon="6.37220056" lat="49.46983112">
                <ele>149</ele>
                <time>2014-02-25T16:59:08.355+01:00</time>
            </trkpt>
            <trkpt lon="6.37231334" lat="49.47110473">
                <ele>149</ele>
                <time>2014-02-25T16:59:30.355+01:00</time>
            </trkpt>
            <trkpt lon="6.37217667" lat="49.47110167">
                <ele>148</ele>
                <time>2014-02-25T16:59:33.355+01:00</time>
            </trkpt>
            <trkpt lon="6.37145445" lat="49.47112778">
                <ele>146</ele>
                <time>2014-02-25T16:59:52.355+01:00</time>
            </trkpt>
            <trkpt lon="6.37019889" lat="49.47116056">
                <ele>144</ele>
                <time>2014-02-25T17:00:25.355+01:00</time>
            </trkpt>
            <trkpt lon="6.36995084" lat="49.47125500">
                <ele>143</ele>
                <time>2014-02-25T17:00:31.355+01:00</time>
            </trkpt>
            <trkpt lon="6.36992417" lat="49.47124362">
                <ele>143</ele>
                <time>2014-02-25T17:00:31.355+01:00</time>
            </trkpt>
            <trkpt lon="6.37000695" lat="49.47170945">
                <ele>146</ele>
                <time>2014-02-25T17:00:40.355+01:00</time>
            </trkpt>
            <trkpt lon="6.36998639" lat="49.47169306">
                <ele>146</ele>
                <time>2014-02-25T17:00:40.355+01:00</time>
            </trkpt>
            <trkpt lon="6.36969612" lat="49.47173778">
                <ele>145</ele>
                <time>2014-02-25T17:00:47.355+01:00</time>
            </trkpt>
            <trkpt lon="6.36966862" lat="49.47250223">
                <ele>145</ele>
                <time>2014-02-25T17:01:00.355+01:00</time>
            </trkpt>
            <trkpt lon="6.36968584" lat="49.47249278">
                <ele>145</ele>
                <time>2014-02-25T17:01:00.355+01:00</time>
            </trkpt>
            <trkpt lon="6.36965112" lat="49.47346723">
                <ele>145</ele>
                <time>2014-02-25T17:01:16.355+01:00</time>
            </trkpt>
            <trkpt lon="6.36956834" lat="49.47411306">
                <ele>145</ele>
                <time>2014-02-25T17:01:27.355+01:00</time>
            </trkpt>
        </trkseg>
    </trk>
</gpx>
